| time (UTC) | temp C | wind direction | speed KPH | gust KPH | rain 1hr cm | rain 24hr cm | rain mn cm | humidity % | barometer mb |
| 20260502230336 | 13 | 0 | 0.0 | 3.2 | 0.00 | 0.00 | 0.00 | 39 | 1008.6 |
| 20260502230236 | 13 | 0 | 0.0 | 3.2 | 0.00 | 0.00 | 0.00 | 38 | 1008.6 |
| 20260502230135 | 13 | 0 | 0.0 | 3.2 | 0.00 | 0.00 | 0.00 | 39 | 1008.6 |
| 20260502230021 | 13 | 360 | 0.0 | 3.2 | 0.00 | 0.00 | 0.00 | 39 | 1008.5 |
| 20260502225932 | 13 | 0 | 0.0 | 3.2 | 0.00 | 0.00 | 0.00 | 39 | 1008.6 |
| 20260502225901 | 13 | 0 | 0.0 | 3.2 | 0.00 | 0.00 | 0.00 | 38 | 1008.5 |
| 20260502225749 | 13 | 0 | 0.0 | 3.2 | 0.00 | 0.00 | 0.00 | 38 | 1008.5 |
| 20260502225743 | 13 | 0 | 0.0 | 3.2 | 0.00 | 0.00 | 0.00 | 38 | 1008.6 |
| 20260502225734 | 13 | 0 | 0.0 | 3.2 | 0.00 | 0.00 | 0.00 | 37 | 1008.5 |
| 20260502225521 | 13 | 360 | 3.2 | 3.2 | 0.00 | 0.00 | 0.00 | 38 | 1008.5 |
| 20260502225430 | 13 | 0 | 0.0 | 1.6 | 0.00 | 0.00 | 0.00 | 39 | 1008.6 |
| 20260502225330 | 13 | 0 | 0.0 | 0.0 | 0.00 | 0.00 | 0.00 | 39 | 1008.5 |
| 20260502225229 | 13 | 0 | 0.0 | 0.0 | 0.00 | 0.00 | 0.00 | 40 | 1008.5 |
| 20260502225129 | 13 | 0 | 0.0 | 0.0 | 0.00 | 0.00 | 0.00 | 39 | 1008.5 |
| 20260502225029 | 13 | 0 | 0.0 | 0.0 | 0.00 | 0.00 | 0.00 | 39 | 1008.5 |
| 20260502225021 | 13 | 360 | 0.0 | 0.0 | 0.00 | 0.00 | 0.00 | 39 | 1008.4 |
| 20260502225018 | 13 | 0 | 0.0 | 0.0 | 0.00 | 0.00 | 0.00 | 39 | 1008.5 |
| 20260502224928 | 13 | 0 | 0.0 | 0.0 | 0.00 | 0.00 | 0.00 | 40 | 1008.5 |
| 20260502224828 | 13 | 0 | 0.0 | 0.0 | 0.00 | 0.00 | 0.00 | 41 | 1008.5 |
| 20260502224727 | 13 | 0 | 0.0 | 0.0 | 0.00 | 0.00 | 0.00 | 39 | 1008.5 |
| 20260502224626 | 13 | 0 | 0.0 | 0.0 | 0.00 | 0.00 | 0.00 | 39 | 1008.5 |
| 20260502224521 | 13 | 360 | 0.0 | 0.0 | 0.00 | 0.00 | 0.00 | 39 | 1008.4 |
| 20260502224518 | 13 | 0 | 0.0 | 0.0 | 0.00 | 0.00 | 0.00 | 39 | 1008.5 |
| 20260502224426 | 13 | 0 | 0.0 | 0.0 | 0.00 | 0.00 | 0.00 | 39 | 1008.5 |
| 20260502224325 | 13 | 0 | 0.0 | 0.0 | 0.00 | 0.00 | 0.00 | 39 | 1008.5 |
| 20260502224225 | 13 | 0 | 0.0 | 0.0 | 0.00 | 0.00 | 0.00 | 39 | 1008.5 |
| 20260502224125 | 13 | 0 | 0.0 | 0.0 | 0.00 | 0.00 | 0.00 | 38 | 1008.5 |
| 20260502224021 | 13 | 360 | 0.0 | 0.0 | 0.00 | 0.00 | 0.00 | 39 | 1008.4 |
| 20260502224016 | 13 | 0 | 0.0 | 0.0 | 0.00 | 0.00 | 0.00 | 39 | 1008.5 |
| 20260502223923 | 13 | 0 | 0.0 | 0.0 | 0.00 | 0.00 | 0.00 | 39 | 1008.5 |
| 20260502223822 | 13 | 0 | 0.0 | 0.0 | 0.00 | 0.00 | 0.00 | 38 | 1008.5 |
| 20260502223722 | 13 | 0 | 0.0 | 0.0 | 0.00 | 0.00 | 0.00 | 38 | 1008.5 |
| 20260502223648 | 13 | 0 | 0.0 | 0.0 | 0.00 | 0.00 | 0.00 | 38 | 1008.5 |
| 20260502223528 | 13 | 0 | 0.0 | 0.0 | 0.00 | 0.00 | 0.00 | 38 | 1008.5 |
| 20260502223522 | 13 | 360 | 0.0 | 0.0 | 0.00 | 0.00 | 0.00 | 38 | 1008.4 |
| 20260502223320 | 14 | 0 | 0.0 | 4.8 | 0.00 | 0.00 | 0.00 | 38 | 1008.4 |
| 20260502223244 | 14 | 0 | 0.0 | 4.8 | 0.00 | 0.00 | 0.00 | 38 | 1008.3 |
| 20260502223131 | 14 | 0 | 0.0 | 4.8 | 0.00 | 0.00 | 0.00 | 38 | 1008.4 |
| 20260502223021 | 14 | 360 | 0.0 | 4.8 | 0.00 | 0.00 | 0.00 | 38 | 1008.3 |
| 20260502223018 | 14 | 0 | 0.0 | 4.8 | 0.00 | 0.00 | 0.00 | 38 | 1008.4 |
| 20260502222930 | 14 | 0 | 0.0 | 12.9 | 0.00 | 0.00 | 0.00 | 38 | 1008.4 |
| 20260502222925 | 14 | 0 | 0.0 | 4.8 | 0.00 | 0.00 | 0.00 | 38 | 1008.4 |
| 20260502222715 | 14 | 0 | 0.0 | 12.9 | 0.00 | 0.00 | 0.00 | 39 | 1008.4 |
| 20260502222615 | 14 | 0 | 0.0 | 12.9 | 0.00 | 0.00 | 0.00 | 39 | 1008.4 |
| 20260502222536 | 14 | 360 | 0.0 | 12.9 | 0.00 | 0.00 | 0.00 | 36 | 1008.2 |
| 20260502222518 | 14 | 0 | 0.0 | 12.9 | 0.00 | 0.00 | 0.00 | 37 | 1008.4 |
| 20260502222512 | 14 | 0 | 0.0 | 12.9 | 0.00 | 0.00 | 0.00 | 36 | 1008.4 |
| 20260502222412 | 14 | 0 | 0.0 | 12.9 | 0.00 | 0.00 | 0.00 | 37 | 1008.4 |
| 20260502222313 | 14 | 0 | 0.0 | 12.9 | 0.00 | 0.00 | 0.00 | 37 | 1008.5 |
| 20260502222213 | 14 | 0 | 0.0 | 12.9 | 0.00 | 0.00 | 0.00 | 36 | 1008.4 |
| 20260502222112 | 14 | 0 | 0.0 | 12.9 | 0.00 | 0.00 | 0.00 | 36 | 1008.4 |
| 20260502222021 | 15 | 360 | 0.0 | 12.9 | 0.00 | 0.00 | 0.00 | 36 | 1008.3 |
| 20260502222012 | 14 | 0 | 0.0 | 12.9 | 0.00 | 0.00 | 0.00 | 36 | 1008.4 |
| 20260502221924 | 15 | 0 | 0.0 | 6.4 | 0.00 | 0.00 | 0.00 | 36 | 1008.4 |
| 20260502221919 | 15 | 0 | 0.0 | 12.9 | 0.00 | 0.00 | 0.00 | 36 | 1008.4 |
| 20260502221709 | 15 | 0 | 0.0 | 6.4 | 0.00 | 0.00 | 0.00 | 36 | 1008.3 |
| 20260502221609 | 15 | 0 | 0.0 | 6.4 | 0.00 | 0.00 | 0.00 | 36 | 1008.4 |
| 20260502221528 | 15 | 0 | 0.0 | 11.3 | 0.00 | 0.00 | 0.00 | 37 | 1008.3 |
| 20260502221521 | 15 | 360 | 0.0 | 11.3 | 0.00 | 0.00 | 0.00 | 35 | 1008.2 |
| 20260502221517 | 15 | 0 | 0.0 | 11.3 | 0.00 | 0.00 | 0.00 | 35 | 1008.3 |
| 20260502221308 | 15 | 0 | 0.0 | 12.9 | 0.00 | 0.00 | 0.00 | 38 | 1008.3 |
| 20260502221207 | 15 | 0 | 0.0 | 12.9 | 0.00 | 0.00 | 0.00 | 37 | 1008.3 |
| 20260502221107 | 15 | 0 | 0.0 | 12.9 | 0.00 | 0.00 | 0.00 | 38 | 1008.3 |
| 20260502221021 | 15 | 360 | 0.0 | 12.9 | 0.00 | 0.00 | 0.00 | 37 | 1008.2 |
| 20260502221014 | 15 | 0 | 0.0 | 12.9 | 0.00 | 0.00 | 0.00 | 37 | 1008.3 |
| 20260502221006 | 15 | 0 | 0.0 | 12.9 | 0.00 | 0.00 | 0.00 | 37 | 1008.3 |
| 20260502220920 | 15 | 0 | 0.0 | 12.9 | 0.00 | 0.00 | 0.00 | 37 | 1008.3 |
| 20260502220915 | 15 | 0 | 0.0 | 12.9 | 0.00 | 0.00 | 0.00 | 37 | 1008.3 |
| 20260502220705 | 15 | 0 | 0.0 | 12.9 | 0.00 | 0.00 | 0.00 | 36 | 1008.2 |
| 20260502220605 | 15 | 0 | 0.0 | 12.9 | 0.00 | 0.00 | 0.00 | 36 | 1008.2 |
| 20260502220521 | 15 | 330 | 0.0 | 12.9 | 0.00 | 0.00 | 0.00 | 36 | 1008.1 |
| 20260502220513 | 15 | 330 | 0.0 | 12.9 | 0.00 | 0.00 | 0.00 | 36 | 1008.2 |
| 20260502220504 | 15 | 322 | 0.0 | 12.9 | 0.00 | 0.00 | 0.00 | 36 | 1008.2 |
| 20260502220404 | 15 | 311 | 0.0 | 8.0 | 0.00 | 0.00 | 0.00 | 37 | 1008.3 |
| 20260502220322 | 15 | 285 | 0.0 | 6.4 | 0.00 | 0.00 | 0.00 | 38 | 1008.2 |
| 20260502220318 | 15 | 0 | 0.0 | 6.4 | 0.00 | 0.00 | 0.00 | 41 | 1008.3 |
| 20260502220313 | 15 | 0 | 0.0 | 6.4 | 0.00 | 0.00 | 0.00 | 38 | 1008.3 |
| 20260502220121 | 15 | 0 | 0.0 | 6.4 | 0.00 | 0.00 | 0.00 | 38 | 1008.2 |
| 20260502220021 | 15 | 360 | 0.0 | 6.4 | 0.00 | 0.00 | 0.00 | 41 | 1008.2 |
| 20260502220001 | 15 | 0 | 0.0 | 6.4 | 0.00 | 0.00 | 0.00 | 41 | 1008.3 |
| 20260502215900 | 15 | 0 | 0.0 | 6.4 | 0.00 | 0.00 | 0.00 | 41 | 1008.3 |
| 20260502215758 | 15 | 0 | 0.0 | 6.4 | 0.00 | 0.00 | 0.00 | 39 | 1008.3 |
| 20260502215657 | 15 | 0 | 0.0 | 6.4 | 0.00 | 0.00 | 0.00 | 37 | 1008.3 |
| 20260502215557 | 15 | 0 | 0.0 | 6.4 | 0.00 | 0.00 | 0.00 | 36 | 1008.2 |
| 20260502215521 | 15 | 360 | 6.4 | 6.4 | 0.00 | 0.00 | 0.00 | 37 | 1008.1 |
| 20260502215514 | 15 | 0 | 0.0 | 6.4 | 0.00 | 0.00 | 0.00 | 37 | 1008.3 |
| 20260502215456 | 15 | 0 | 0.0 | 6.4 | 0.00 | 0.00 | 0.00 | 37 | 1008.3 |
| 20260502215357 | 15 | 0 | 0.0 | 6.4 | 0.00 | 0.00 | 0.00 | 37 | 1008.3 |
| 20260502215255 | 15 | 0 | 0.0 | 6.4 | 0.00 | 0.00 | 0.00 | 37 | 1008.2 |
| 20260502215155 | 15 | 0 | 0.0 | 1.6 | 0.00 | 0.00 | 0.00 | 37 | 1008.3 |
| 20260502215055 | 15 | 0 | 0.0 | 1.6 | 0.00 | 0.00 | 0.00 | 37 | 1008.2 |
| 20260502215036 | 15 | 360 | 0.0 | 11.3 | 0.00 | 0.00 | 0.00 | 37 | 1008.0 |
| 20260502215013 | 15 | 0 | 0.0 | 11.3 | 0.00 | 0.00 | 0.00 | 37 | 1008.2 |
| 20260502214954 | 15 | 320 | 0.0 | 11.3 | 0.00 | 0.00 | 0.00 | 39 | 1008.2 |
| 20260502214914 | 15 | 294 | 0.0 | 11.3 | 0.00 | 0.00 | 0.00 | 38 | 1008.2 |
| 20260502214801 | 15 | 355 | 0.0 | 11.3 | 0.00 | 0.00 | 0.00 | 38 | 1008.3 |
| 20260502214552 | 15 | 350 | 0.0 | 11.3 | 0.00 | 0.00 | 0.00 | 38 | 1008.3 |
| 20260502214523 | 15 | 311 | 0.0 | 11.3 | 0.00 | 0.00 | 0.00 | 37 | 1008.3 |
| 20260502214521 | 15 | 284 | 0.0 | 11.3 | 0.00 | 0.00 | 0.00 | 38 | 1008.1 |
| 20260502214518 | 15 | 254 | 0.0 | 11.3 | 0.00 | 0.00 | 0.00 | 37 | 1008.3 |
| 20260502214514 | 15 | 284 | 0.0 | 11.3 | 0.00 | 0.00 | 0.00 | 38 | 1008.3 |
| 20260502214507 | 15 | 34 | 0.0 | 11.3 | 0.00 | 0.00 | 0.00 | 37 | 1008.3 |
| 20260502214202 | 15 | 273 | 0.0 | 11.3 | 0.00 | 0.00 | 0.00 | 37 | 1008.2 |
| 20260502214156 | 15 | 272 | 0.0 | 11.3 | 0.00 | 0.00 | 0.00 | 37 | 1008.2 |
| 20260502214021 | 15 | 250 | 0.0 | 6.4 | 0.00 | 0.00 | 0.00 | 37 | 1008.0 |
| 20260502214009 | 15 | 273 | 0.0 | 6.4 | 0.00 | 0.00 | 0.00 | 37 | 1008.2 |
| 20260502213946 | 15 | 290 | 0.0 | 6.4 | 0.00 | 0.00 | 0.00 | 36 | 1008.2 |
| 20260502213846 | 15 | 314 | 0.0 | 6.4 | 0.00 | 0.00 | 0.00 | 37 | 1008.1 |
| 20260502213746 | 15 | 314 | 0.0 | 3.2 | 0.00 | 0.00 | 0.00 | 37 | 1008.2 |
| 20260502213645 | 15 | 0 | 0.0 | 3.2 | 0.00 | 0.00 | 0.00 | 39 | 1008.2 |
| 20260502213544 | 14 | 0 | 0.0 | 6.4 | 0.00 | 0.00 | 0.00 | 39 | 1008.1 |
| 20260502213521 | 15 | 360 | 0.0 | 6.4 | 0.00 | 0.00 | 0.00 | 38 | 1008.0 |
| 20260502213509 | 14 | 0 | 0.0 | 6.4 | 0.00 | 0.00 | 0.00 | 38 | 1008.2 |
| 20260502213444 | 14 | 0 | 0.0 | 6.4 | 0.00 | 0.00 | 0.00 | 37 | 1008.2 |
| 20260502213343 | 14 | 0 | 0.0 | 6.4 | 0.00 | 0.00 | 0.00 | 37 | 1008.1 |
| 20260502213309 | 14 | 0 | 0.0 | 6.4 | 0.00 | 0.00 | 0.00 | 37 | 1008.1 |
| 20260502213305 | 14 | 0 | 0.0 | 6.4 | 0.00 | 0.00 | 0.00 | 39 | 1008.1 |
| 20260502213259 | 14 | 0 | 0.0 | 6.4 | 0.00 | 0.00 | 0.00 | 37 | 1008.1 |
| 20260502213021 | 15 | 360 | 0.0 | 6.4 | 0.00 | 0.00 | 0.00 | 38 | 1008.0 |
| 20260502213011 | 14 | 0 | 0.0 | 6.4 | 0.00 | 0.00 | 0.00 | 38 | 1008.2 |
| 20260502213004 | 14 | 0 | 0.0 | 6.4 | 0.00 | 0.00 | 0.00 | 38 | 1008.2 |
| 20260502212852 | 15 | 0 | 0.0 | 6.4 | 0.00 | 0.00 | 0.00 | 39 | 1008.2 |
| 20260502212642 | 15 | 0 | 0.0 | 6.4 | 0.00 | 0.00 | 0.00 | 37 | 1008.2 |
| 20260502212541 | 15 | 0 | 0.0 | 6.4 | 0.00 | 0.00 | 0.00 | 38 | 1008.1 |
| 20260502212521 | 15 | 360 | 0.0 | 6.4 | 0.00 | 0.00 | 0.00 | 38 | 1008.0 |
| 20260502212505 | 15 | 0 | 0.0 | 6.4 | 0.00 | 0.00 | 0.00 | 38 | 1008.2 |
| 20260502212442 | 15 | 0 | 0.0 | 6.4 | 0.00 | 0.00 | 0.00 | 38 | 1008.2 |
| 20260502212403 | 15 | 0 | 0.0 | 6.4 | 0.00 | 0.00 | 0.00 | 38 | 1008.1 |
| 20260502212249 | 15 | 0 | 0.0 | 6.4 | 0.00 | 0.00 | 0.00 | 38 | 1008.1 |
| 20260502212039 | 15 | 0 | 0.0 | 6.4 | 0.00 | 0.00 | 0.00 | 37 | 1008.1 |
| 20260502212021 | 15 | 360 | 0.0 | 6.4 | 0.00 | 0.00 | 0.00 | 37 | 1007.8 |
| 20260502212004 | 15 | 0 | 0.0 | 6.4 | 0.00 | 0.00 | 0.00 | 37 | 1008.0 |
| 20260502211939 | 15 | 0 | 0.0 | 6.4 | 0.00 | 0.00 | 0.00 | 37 | 1008.0 |
| 20260502211839 | 15 | 0 | 0.0 | 3.2 | 0.00 | 0.00 | 0.00 | 38 | 1008.1 |
| 20260502211738 | 15 | 0 | 0.0 | 3.2 | 0.00 | 0.00 | 0.00 | 40 | 1008.0 |
| 20260502211638 | 15 | 0 | 0.0 | 3.2 | 0.00 | 0.00 | 0.00 | 39 | 1008.1 |
| 20260502211537 | 15 | 0 | 0.0 | 1.6 | 0.00 | 0.00 | 0.00 | 39 | 1008.0 |
| 20260502211521 | 15 | 360 | 0.0 | 1.6 | 0.00 | 0.00 | 0.00 | 39 | 1007.8 |
| 20260502211506 | 15 | 0 | 0.0 | 1.6 | 0.00 | 0.00 | 0.00 | 37 | 1008.0 |
| 20260502211437 | 15 | 0 | 0.0 | 1.6 | 0.00 | 0.00 | 0.00 | 37 | 1008.0 |
| 20260502211336 | 15 | 0 | 0.0 | 1.6 | 0.00 | 0.00 | 0.00 | 37 | 1008.0 |
| 20260502211235 | 15 | 0 | 0.0 | 1.6 | 0.00 | 0.00 | 0.00 | 38 | 1008.0 |
| 20260502211147 | 15 | 0 | 0.0 | 1.6 | 0.00 | 0.00 | 0.00 | 37 | 1007.9 |
| 20260502211143 | 15 | 0 | 0.0 | 1.6 | 0.00 | 0.00 | 0.00 | 37 | 1007.9 |
| 20260502211021 | 15 | 360 | 0.0 | 1.6 | 0.00 | 0.00 | 0.00 | 37 | 1007.7 |
| 20260502211004 | 15 | 0 | 0.0 | 1.6 | 0.00 | 0.00 | 0.00 | 37 | 1007.9 |
| 20260502210934 | 15 | 0 | 0.0 | 1.6 | 0.00 | 0.00 | 0.00 | 36 | 1007.9 |
| 20260502210832 | 15 | 0 | 0.0 | 1.6 | 0.00 | 0.00 | 0.00 | 37 | 1007.9 |
| 20260502210732 | 15 | 0 | 0.0 | 0.0 | 0.00 | 0.00 | 0.00 | 38 | 1007.8 |
| 20260502210632 | 15 | 0 | 0.0 | 0.0 | 0.00 | 0.00 | 0.00 | 36 | 1007.9 |
| 20260502210531 | 15 | 0 | 0.0 | 0.0 | 0.00 | 0.00 | 0.00 | 37 | 1007.8 |
| 20260502210521 | 15 | 360 | 0.0 | 0.0 | 0.00 | 0.00 | 0.00 | 37 | 1007.7 |
| 20260502210504 | 15 | 0 | 0.0 | 0.0 | 0.00 | 0.00 | 0.00 | 37 | 1007.9 |
| 20260502210429 | 15 | 0 | 0.0 | 0.0 | 0.00 | 0.00 | 0.00 | 38 | 1007.9 |
| 20260502210355 | 15 | 0 | 0.0 | 0.0 | 0.00 | 0.00 | 0.00 | 38 | 1007.9 |
| 20260502210350 | 15 | 0 | 0.0 | 6.4 | 0.00 | 0.00 | 0.00 | 40 | 1007.8 |
| 20260502210346 | 15 | 0 | 0.0 | 0.0 | 0.00 | 0.00 | 0.00 | 38 | 1007.9 |
| 20260502210036 | 15 | 360 | 0.0 | 6.4 | 0.00 | 0.00 | 0.00 | 40 | 1007.5 |
| 20260502210027 | 15 | 0 | 0.0 | 6.4 | 0.00 | 0.00 | 0.00 | 40 | 1007.8 |
| 20260502210004 | 15 | 0 | 0.0 | 6.4 | 0.00 | 0.00 | 0.00 | 40 | 1007.7 |
| 20260502205939 | 15 | 0 | 0.0 | 6.4 | 0.00 | 0.00 | 0.00 | 40 | 1007.7 |
| 20260502205934 | 15 | 0 | 0.0 | 6.4 | 0.00 | 0.00 | 0.00 | 39 | 1007.7 |
| 20260502205728 | 15 | 0 | 0.0 | 6.4 | 0.00 | 0.00 | 0.00 | 37 | 1007.8 |
| 20260502205724 | 15 | 0 | 0.0 | 6.4 | 0.00 | 0.00 | 0.00 | 39 | 1007.7 |
| 20260502205624 | 15 | 0 | 0.0 | 6.4 | 0.00 | 0.00 | 0.00 | 38 | 1007.7 |
| 20260502205609 | 15 | 0 | 0.0 | 6.4 | 0.00 | 0.00 | 0.00 | 37 | 1007.8 |
| 20260502205521 | 15 | 360 | 0.0 | 6.4 | 0.00 | 0.00 | 0.00 | 37 | 1007.7 |
| 20260502205422 | 15 | 0 | 0.0 | 6.4 | 0.00 | 0.00 | 0.00 | 38 | 1007.8 |
| 20260502205322 | 15 | 0 | 0.0 | 9.7 | 0.00 | 0.00 | 0.00 | 40 | 1007.8 |
| 20260502205226 | 16 | 0 | 0.0 | 9.7 | 0.00 | 0.00 | 0.00 | 36 | 1007.7 |
| 20260502205222 | 15 | 0 | 0.0 | 9.7 | 0.00 | 0.00 | 0.00 | 37 | 1007.7 |
| 20260502205122 | 15 | 0 | 0.0 | 9.7 | 0.00 | 0.00 | 0.00 | 36 | 1007.7 |
| 20260502205108 | 16 | 0 | 0.0 | 9.7 | 0.00 | 0.00 | 0.00 | 36 | 1007.7 |
| 20260502205021 | 16 | 360 | 0.0 | 9.7 | 0.00 | 0.00 | 0.00 | 36 | 1007.6 |
| 20260502204919 | 16 | 0 | 0.0 | 9.7 | 0.00 | 0.00 | 0.00 | 38 | 1007.7 |
| 20260502204816 | 16 | 0 | 0.0 | 9.7 | 0.00 | 0.00 | 0.00 | 37 | 1007.7 |
| 20260502204730 | 16 | 0 | 0.0 | 9.7 | 0.00 | 0.00 | 0.00 | 37 | 1007.7 |
| 20260502204725 | 16 | 0 | 0.0 | 9.7 | 0.00 | 0.00 | 0.00 | 36 | 1007.7 |
| 20260502204522 | 16 | 360 | 0.0 | 14.5 | 0.00 | 0.00 | 0.00 | 34 | 1007.6 |
| 20260502204515 | 16 | 0 | 0.0 | 14.5 | 0.00 | 0.00 | 0.00 | 34 | 1007.6 |
| 20260502204500 | 16 | 0 | 0.0 | 14.5 | 0.00 | 0.00 | 0.00 | 34 | 1007.7 |
| 20260502204441 | 16 | 0 | 0.0 | 14.5 | 0.00 | 0.00 | 0.00 | 36 | 1007.6 |
| 20260502204437 | 16 | 278 | 0.0 | 14.5 | 0.00 | 0.00 | 0.00 | 35 | 1007.6 |
| 20260502204431 | 16 | 0 | 0.0 | 14.5 | 0.00 | 0.00 | 0.00 | 35 | 1007.7 |
| 20260502204128 | 16 | 221 | 0.0 | 14.5 | 0.00 | 0.00 | 0.00 | 36 | 1007.6 |
| 20260502204124 | 16 | 259 | 0.0 | 14.5 | 0.00 | 0.00 | 0.00 | 35 | 1007.6 |
| 20260502204036 | 16 | 221 | 0.0 | 14.5 | 0.00 | 0.00 | 0.00 | 36 | 1007.5 |
| 20260502204000 | 16 | 221 | 0.0 | 14.5 | 0.00 | 0.00 | 0.00 | 34 | 1007.6 |
| 20260502203927 | 16 | 300 | 0.0 | 14.5 | 0.00 | 0.00 | 0.00 | 35 | 1007.6 |
| 20260502203923 | 16 | 276 | 0.0 | 14.5 | 0.00 | 0.00 | 0.00 | 34 | 1007.6 |
| 20260502203713 | 16 | 265 | 0.0 | 14.5 | 0.00 | 0.00 | 0.00 | 34 | 1007.6 |
| 20260502203613 | 16 | 241 | 0.0 | 14.5 | 0.00 | 0.00 | 0.00 | 34 | 1007.7 |
| 20260502203521 | 16 | 258 | 0.0 | 11.3 | 0.00 | 0.00 | 0.00 | 35 | 1007.6 |
| 20260502203513 | 16 | 263 | 0.0 | 11.3 | 0.00 | 0.00 | 0.00 | 35 | 1007.7 |
| 20260502203505 | 15 | 268 | 0.0 | 16.1 | 0.00 | 0.00 | 0.00 | 40 | 1007.8 |
| 20260502203501 | 16 | 221 | 0.0 | 11.3 | 0.00 | 0.00 | 0.00 | 37 | 1007.7 |
| 20260502203456 | 15 | 301 | 0.0 | 16.1 | 0.00 | 0.00 | 0.00 | 39 | 1007.7 |
| 20260502203450 | 16 | 309 | 0.0 | 11.3 | 0.00 | 0.00 | 0.00 | 37 | 1007.7 |
| 20260502203119 | 15 | 0 | 0.0 | 16.1 | 0.00 | 0.00 | 0.00 | 39 | 1007.8 |
| 20260502203021 | 15 | 360 | 0.0 | 16.1 | 0.00 | 0.00 | 0.00 | 38 | 1007.7 |
| 20260502203001 | 15 | 0 | 0.0 | 16.1 | 0.00 | 0.00 | 0.00 | 38 | 1007.8 |
| 20260502202909 | 15 | 0 | 0.0 | 16.1 | 0.00 | 0.00 | 0.00 | 38 | 1007.8 |
| 20260502202809 | 15 | 0 | 0.0 | 16.1 | 0.00 | 0.00 | 0.00 | 38 | 1007.8 |
| 20260502202707 | 15 | 0 | 0.0 | 16.1 | 0.00 | 0.00 | 0.00 | 37 | 1007.8 |
| 20260502202607 | 15 | 0 | 0.0 | 16.1 | 0.00 | 0.00 | 0.00 | 36 | 1007.8 |
| 20260502202521 | 15 | 360 | 0.0 | 16.1 | 0.00 | 0.00 | 0.00 | 36 | 1007.8 |
| 20260502202509 | 15 | 0 | 0.0 | 16.1 | 0.00 | 0.00 | 0.00 | 36 | 1007.9 |
| 20260502202501 | 15 | 0 | 0.0 | 16.1 | 0.00 | 0.00 | 0.00 | 36 | 1007.9 |
| 20260502202406 | 15 | 0 | 0.0 | 16.1 | 0.00 | 0.00 | 0.00 | 36 | 1007.9 |
| 20260502202305 | 15 | 0 | 0.0 | 0.0 | 0.00 | 0.00 | 0.00 | 37 | 1007.8 |
| 20260502202204 | 15 | 0 | 0.0 | 0.0 | 0.00 | 0.00 | 0.00 | 38 | 1007.9 |
| 20260502202104 | 15 | 0 | 0.0 | 0.0 | 0.00 | 0.00 | 0.00 | 37 | 1007.9 |
| 20260502202021 | 15 | 360 | 0.0 | 1.6 | 0.00 | 0.00 | 0.00 | 40 | 1007.7 |
| 20260502202000 | 15 | 0 | 0.0 | 1.6 | 0.00 | 0.00 | 0.00 | 40 | 1007.8 |
| 20260502201917 | 15 | 0 | 0.0 | 4.8 | 0.00 | 0.00 | 0.00 | 38 | 1007.9 |
| 20260502201913 | 15 | 0 | 0.0 | 1.6 | 0.00 | 0.00 | 0.00 | 39 | 1007.8 |
| 20260502201703 | 15 | 0 | 0.0 | 4.8 | 0.00 | 0.00 | 0.00 | 37 | 1007.9 |
| 20260502201602 | 15 | 0 | 0.0 | 4.8 | 0.00 | 0.00 | 0.00 | 37 | 1008.0 |
| 20260502201521 | 15 | 360 | 0.0 | 4.8 | 0.00 | 0.00 | 0.00 | 40 | 1007.9 |
| 20260502201503 | 15 | 0 | 0.0 | 4.8 | 0.00 | 0.00 | 0.00 | 40 | 1008.0 |
| 20260502201401 | 15 | 0 | 0.0 | 4.8 | 0.00 | 0.00 | 0.00 | 40 | 1008.0 |
| 20260502201300 | 15 | 0 | 0.0 | 4.8 | 0.00 | 0.00 | 0.00 | 39 | 1008.0 |
| 20260502201200 | 15 | 0 | 0.0 | 4.8 | 0.00 | 0.00 | 0.00 | 37 | 1008.0 |
| 20260502201058 | 15 | 0 | 0.0 | 4.8 | 0.00 | 0.00 | 0.00 | 36 | 1008.0 |
| 20260502201021 | 15 | 360 | 0.0 | 4.8 | 0.00 | 0.00 | 0.00 | 36 | 1007.9 |
| 20260502200958 | 15 | 0 | 0.0 | 4.8 | 0.00 | 0.00 | 0.00 | 36 | 1008.0 |
| 20260502200857 | 15 | 0 | 0.0 | 4.8 | 0.00 | 0.00 | 0.00 | 37 | 1008.0 |
| 20260502200757 | 15 | 0 | 0.0 | 3.2 | 0.00 | 0.00 | 0.00 | 38 | 1007.9 |
| 20260502200657 | 15 | 0 | 0.0 | 1.6 | 0.00 | 0.00 | 0.00 | 36 | 1008.0 |
| 20260502200555 | 16 | 284 | 0.0 | 1.6 | 0.00 | 0.00 | 0.00 | 36 | 1007.9 |
| 20260502200521 | 16 | 22 | 0.0 | 1.6 | 0.00 | 0.00 | 0.00 | 36 | 1007.8 |
| 20260502200501 | 16 | 15 | 0.0 | 1.6 | 0.00 | 0.00 | 0.00 | 34 | 1007.9 |
| 20260502200456 | 16 | 28 | 0.0 | 1.6 | 0.00 | 0.00 | 0.00 | 34 | 1007.9 |
| 20260502200354 | 16 | 44 | 0.0 | 1.6 | 0.00 | 0.00 | 0.00 | 34 | 1007.9 |
| 20260502200254 | 16 | 351 | 0.0 | 1.6 | 0.00 | 0.00 | 0.00 | 36 | 1008.0 |
| 20260502200154 | 16 | 17 | 0.0 | 1.6 | 0.00 | 0.00 | 0.00 | 34 | 1007.9 |
| 20260502200050 | 16 | 355 | 0.0 | 1.6 | 0.00 | 0.00 | 0.00 | 38 | 1008.0 |
| 20260502200021 | 16 | 255 | 0.0 | 1.6 | 0.00 | 0.00 | 0.00 | 38 | 1007.9 |
| 20260502195957 | 16 | 254 | 0.0 | 1.6 | 0.00 | 0.00 | 0.00 | 36 | 1008.0 |
| 20260502195952 | 16 | 0 | 0.0 | 1.6 | 0.00 | 0.00 | 0.00 | 36 | 1008.0 |
| 20260502195916 | 16 | 269 | 0.0 | 0.0 | 0.00 | 0.00 | 0.00 | 38 | 1008.1 |
| 20260502195912 | 16 | 263 | 0.0 | 1.6 | 0.00 | 0.00 | 0.00 | 36 | 1008.0 |
| 20260502195758 | 16 | 251 | 0.0 | 0.0 | 0.00 | 0.00 | 0.00 | 36 | 1008.0 |
| 20260502195617 | 16 | 249 | 0.0 | 0.0 | 0.00 | 0.00 | 0.00 | 38 | 1008.1 |
| 20260502195611 | 16 | 304 | 0.0 | 0.0 | 0.00 | 0.00 | 0.00 | 37 | 1008.0 |
| 20260502195521 | 16 | 306 | 0.0 | 0.0 | 0.00 | 0.00 | 0.00 | 37 | 1007.9 |
| 20260502195457 | 16 | 302 | 0.0 | 0.0 | 0.00 | 0.00 | 0.00 | 39 | 1008.0 |
| 20260502195247 | 16 | 0 | 0.0 | 0.0 | 0.00 | 0.00 | 0.00 | 38 | 1008.1 |
| 20260502195200 | 16 | 0 | 0.0 | 0.0 | 0.00 | 0.00 | 0.00 | 37 | 1008.1 |
| 20260502195155 | 16 | 0 | 0.0 | 0.0 | 0.00 | 0.00 | 0.00 | 37 | 1008.0 |
| 20260502195021 | 16 | 360 | 0.0 | 0.0 | 0.00 | 0.00 | 0.00 | 37 | 1008.0 |
| 20260502194946 | 16 | 0 | 0.0 | 0.0 | 0.00 | 0.00 | 0.00 | 37 | 1008.1 |
| 20260502194845 | 16 | 0 | 0.0 | 0.0 | 0.00 | 0.00 | 0.00 | 36 | 1008.1 |
| 20260502194744 | 16 | 0 | 0.0 | 0.0 | 0.00 | 0.00 | 0.00 | 40 | 1008.2 |
| 20260502194644 | 16 | 0 | 0.0 | 0.0 | 0.00 | 0.00 | 0.00 | 38 | 1008.2 |
| 20260502194543 | 16 | 0 | 0.0 | 0.0 | 0.00 | 0.00 | 0.00 | 41 | 1008.2 |
| 20260502194522 | 16 | 360 | 0.0 | 1.6 | 0.00 | 0.00 | 0.00 | 40 | 1008.1 |
| 20260502194444 | 16 | 0 | 0.0 | 1.6 | 0.00 | 0.00 | 0.00 | 40 | 1008.2 |
| 20260502194354 | 16 | 0 | 0.0 | 6.4 | 0.00 | 0.00 | 0.00 | 37 | 1008.3 |
| 20260502194350 | 16 | 0 | 0.0 | 6.4 | 0.00 | 0.00 | 0.00 | 39 | 1008.2 |
| 20260502194140 | 16 | 0 | 0.0 | 6.4 | 0.00 | 0.00 | 0.00 | 38 | 1008.3 |
| 20260502194039 | 16 | 0 | 0.0 | 6.4 | 0.00 | 0.00 | 0.00 | 37 | 1008.3 |
| 20260502194021 | 16 | 360 | 0.0 | 6.4 | 0.00 | 0.00 | 0.00 | 37 | 1008.2 |
| 20260502193953 | 16 | 0 | 0.0 | 6.4 | 0.00 | 0.00 | 0.00 | 37 | 1008.3 |
| 20260502193938 | 16 | 0 | 0.0 | 6.4 | 0.00 | 0.00 | 0.00 | 37 | 1008.3 |
| 20260502193838 | 16 | 0 | 0.0 | 6.4 | 0.00 | 0.00 | 0.00 | 36 | 1008.4 |
| 20260502193738 | 16 | 0 | 0.0 | 6.4 | 0.00 | 0.00 | 0.00 | 39 | 1008.5 |
| 20260502193715 | 16 | 0 | 0.0 | 6.4 | 0.00 | 0.00 | 0.00 | 38 | 1008.5 |
| 20260502193638 | 16 | 0 | 0.0 | 6.4 | 0.00 | 0.00 | 0.00 | 39 | 1008.4 |
| 20260502193605 | 16 | 0 | 0.0 | 6.4 | 0.00 | 0.00 | 0.00 | 39 | 1008.4 |
| 20260502193521 | 16 | 360 | 0.0 | 6.4 | 0.00 | 0.00 | 0.00 | 38 | 1008.4 |
| 20260502193450 | 16 | 0 | 0.0 | 4.8 | 0.00 | 0.00 | 0.00 | 37 | 1008.4 |
| 20260502193446 | 16 | 216 | 0.0 | 6.4 | 0.00 | 0.00 | 0.00 | 38 | 1008.5 |
| 20260502193237 | 16 | 245 | 0.0 | 4.8 | 0.00 | 0.00 | 0.00 | 37 | 1008.5 |
| 20260502193136 | 16 | 0 | 0.0 | 4.8 | 0.00 | 0.00 | 0.00 | 38 | 1008.5 |
| 20260502193035 | 16 | 256 | 0.0 | 4.8 | 0.00 | 0.00 | 0.00 | 39 | 1008.5 |
| 20260502193021 | 16 | 221 | 0.0 | 4.8 | 0.00 | 0.00 | 0.00 | 39 | 1008.5 |
| 20260502192933 | 16 | 219 | 0.0 | 4.8 | 0.00 | 0.00 | 0.00 | 40 | 1008.6 |
| 20260502192832 | 16 | 280 | 0.0 | 4.8 | 0.00 | 0.00 | 0.00 | 39 | 1008.6 |
| 20260502192731 | 16 | 186 | 0.0 | 4.8 | 0.00 | 0.00 | 0.00 | 40 | 1008.6 |
| 20260502192644 | 16 | 295 | 0.0 | 4.8 | 0.00 | 0.00 | 0.00 | 41 | 1008.5 |
| 20260502192640 | 16 | 216 | 0.0 | 4.8 | 0.00 | 0.00 | 0.00 | 41 | 1008.5 |
| 20260502192521 | 16 | 296 | 0.0 | 4.8 | 0.00 | 0.00 | 0.00 | 41 | 1008.4 |
| 20260502192451 | 16 | 296 | 0.0 | 4.8 | 0.00 | 0.00 | 0.00 | 38 | 1008.5 |
| 20260502192430 | 16 | 211 | 0.0 | 4.8 | 0.00 | 0.00 | 0.00 | 38 | 1008.5 |
| 20260502192329 | 16 | 207 | 0.0 | 4.8 | 0.00 | 0.00 | 0.00 | 38 | 1008.6 |
| 20260502192228 | 16 | 257 | 0.0 | 3.2 | 0.00 | 0.00 | 0.00 | 38 | 1008.6 |
| 20260502192128 | 16 | 338 | 0.0 | 4.8 | 0.00 | 0.00 | 0.00 | 39 | 1008.6 |
| 20260502192026 | 16 | 0 | 0.0 | 4.8 | 0.00 | 0.00 | 0.00 | 39 | 1008.6 |
| 20260502192021 | 16 | 360 | 0.0 | 4.8 | 0.00 | 0.00 | 0.00 | 39 | 1008.6 |
| 20260502191926 | 16 | 0 | 0.0 | 4.8 | 0.00 | 0.00 | 0.00 | 37 | 1008.7 |
| 20260502191848 | 16 | 258 | 0.0 | 4.8 | 0.00 | 0.00 | 0.00 | 37 | 1008.7 |
| 20260502191735 | 16 | 260 | 0.0 | 4.8 | 0.00 | 0.00 | 0.00 | 38 | 1008.7 |
| 20260502191524 | 16 | 0 | 0.0 | 4.8 | 0.00 | 0.00 | 0.00 | 40 | 1008.7 |
| 20260502191521 | 16 | 360 | 0.0 | 4.8 | 0.00 | 0.00 | 0.00 | 40 | 1008.6 |
| 20260502191446 | 16 | 0 | 0.0 | 4.8 | 0.00 | 0.00 | 0.00 | 40 | 1008.7 |
| 20260502191423 | 16 | 255 | 0.0 | 4.8 | 0.00 | 0.00 | 0.00 | 41 | 1008.7 |
| 20260502191322 | 16 | 247 | 0.0 | 4.8 | 0.00 | 0.00 | 0.00 | 40 | 1008.7 |
| 20260502191222 | 16 | 229 | 0.0 | 4.8 | 0.00 | 0.00 | 0.00 | 38 | 1008.7 |
| 20260502191121 | 16 | 263 | 0.0 | 0.0 | 0.00 | 0.00 | 0.00 | 39 | 1008.8 |
| 20260502191021 | 16 | 232 | 0.0 | 0.0 | 0.00 | 0.00 | 0.00 | 41 | 1008.8 |
| 20260502190946 | 16 | 262 | 0.0 | 0.0 | 0.00 | 0.00 | 0.00 | 41 | 1008.9 |
| 20260502190920 | 16 | 0 | 0.0 | 0.0 | 0.00 | 0.00 | 0.00 | 43 | 1008.9 |
| 20260502190820 | 16 | 0 | 0.0 | 0.0 | 0.00 | 0.00 | 0.00 | 41 | 1008.9 |
| 20260502190720 | 16 | 0 | 0.0 | 0.0 | 0.00 | 0.00 | 0.00 | 40 | 1008.9 |
| 20260502190704 | 16 | 0 | 0.0 | 0.0 | 0.00 | 0.00 | 0.00 | 42 | 1008.9 |
| 20260502190619 | 16 | 0 | 0.0 | 0.0 | 0.00 | 0.00 | 0.00 | 42 | 1008.9 |
| 20260502190555 | 16 | 0 | 0.0 | 0.0 | 0.00 | 0.00 | 0.00 | 42 | 1009.0 |
| 20260502190536 | 16 | 360 | 0.0 | 0.0 | 0.00 | 0.00 | 0.00 | 42 | 1008.8 |
| 20260502190418 | 16 | 0 | 0.0 | 0.0 | 0.00 | 0.00 | 0.00 | 41 | 1008.9 |
| 20260502190317 | 15 | 0 | 0.0 | 16.1 | 0.00 | 0.00 | 0.00 | 40 | 1009.0 |
| 20260502190231 | 15 | 0 | 0.0 | 16.1 | 0.00 | 0.00 | 0.00 | 40 | 1008.9 |
| 20260502190227 | 15 | 0 | 0.0 | 16.1 | 0.00 | 0.00 | 0.00 | 39 | 1008.9 |
| 20260502190034 | 15 | 0 | 0.0 | 16.1 | 0.00 | 0.00 | 0.00 | 41 | 1008.9 |
| 20260502190030 | 15 | 0 | 0.0 | 16.1 | 0.00 | 0.00 | 0.00 | 41 | 1008.9 |
| 20260502190022 | 15 | 0 | 0.0 | 16.1 | 0.00 | 0.00 | 0.00 | 40 | 1008.9 |
| 20260502185816 | 15 | 0 | 0.0 | 16.1 | 0.00 | 0.00 | 0.00 | 39 | 1009.0 |
| 20260502185728 | 15 | 0 | 0.0 | 16.1 | 0.00 | 0.00 | 0.00 | 39 | 1009.0 |
| 20260502185724 | 15 | 0 | 0.0 | 16.1 | 0.00 | 0.00 | 0.00 | 39 | 1009.0 |
| 20260502185521 | 15 | 360 | 0.0 | 16.1 | 0.00 | 0.00 | 0.00 | 38 | 1009.0 |
| 20260502185515 | 15 | 0 | 0.0 | 16.1 | 0.00 | 0.00 | 0.00 | 38 | 1009.1 |
| 20260502185446 | 15 | 0 | 0.0 | 16.1 | 0.00 | 0.00 | 0.00 | 37 | 1009.1 |
| 20260502185414 | 15 | 0 | 0.0 | 16.1 | 0.00 | 0.00 | 0.00 | 39 | 1009.1 |
| 20260502185340 | 15 | 0 | 0.0 | 8.0 | 0.00 | 0.00 | 0.00 | 40 | 1009.1 |
| 20260502185335 | 15 | 0 | 0.0 | 8.0 | 0.00 | 0.00 | 0.00 | 39 | 1009.1 |
| 20260502185331 | 15 | 0 | 0.0 | 8.0 | 0.00 | 0.00 | 0.00 | 39 | 1009.1 |
| 20260502185021 | 15 | 360 | 0.0 | 3.2 | 0.00 | 0.00 | 0.00 | 41 | 1009.0 |
| 20260502185011 | 15 | 0 | 0.0 | 3.2 | 0.00 | 0.00 | 0.00 | 41 | 1009.1 |
| 20260502184946 | 15 | 0 | 0.0 | 3.2 | 0.00 | 0.00 | 0.00 | 41 | 1009.1 |
| 20260502184912 | 15 | 0 | 0.0 | 3.2 | 0.00 | 0.00 | 0.00 | 41 | 1009.2 |
| 20260502184833 | 15 | 0 | 0.0 | 3.2 | 0.00 | 0.00 | 0.00 | 41 | 1009.1 |
| 20260502184829 | 15 | 0 | 0.0 | 3.2 | 0.00 | 0.00 | 0.00 | 42 | 1009.1 |
| 20260502184824 | 15 | 0 | 0.0 | 3.2 | 0.00 | 0.00 | 0.00 | 41 | 1009.1 |
| 20260502184820 | 15 | 0 | 0.0 | 3.2 | 0.00 | 0.00 | 0.00 | 42 | 1009.1 |
| 20260502184702 | 15 | 0 | 0.0 | 3.2 | 0.00 | 0.00 | 0.00 | 40 | 1009.1 |
| 20260502184521 | 15 | 360 | 0.0 | 3.2 | 0.00 | 0.00 | 0.00 | 42 | 1009.0 |
| 20260502184411 | 15 | 0 | 0.0 | 3.2 | 0.00 | 0.00 | 0.00 | 41 | 1009.1 |
| 20260502184403 | 15 | 0 | 0.0 | 3.2 | 0.00 | 0.00 | 0.00 | 41 | 1009.1 |
| 20260502184358 | 15 | 0 | 0.0 | 3.2 | 0.00 | 0.00 | 0.00 | 41 | 1009.1 |
| 20260502184246 | 14 | 0 | 0.0 | 3.2 | 0.00 | 0.00 | 0.00 | 41 | 1009.1 |
| 20260502184240 | 15 | 0 | 0.0 | 3.2 | 0.00 | 0.00 | 0.00 | 43 | 1009.1 |
| 20260502184231 | 15 | 0 | 0.0 | 3.2 | 0.00 | 0.00 | 0.00 | 42 | 1009.1 |
| 20260502184021 | 15 | 360 | 0.0 | 3.2 | 0.00 | 0.00 | 0.00 | 41 | 1009.0 |
| 20260502183806 | 14 | 0 | 0.0 | 0.0 | 0.00 | 0.00 | 0.00 | 42 | 1009.1 |
| 20260502183707 | 14 | 0 | 0.0 | 1.6 | 0.00 | 0.00 | 0.00 | 41 | 1009.1 |
| 20260502183606 | 14 | 0 | 0.0 | 1.6 | 0.00 | 0.00 | 0.00 | 40 | 1009.0 |
| 20260502183521 | 14 | 360 | 0.0 | 1.6 | 0.00 | 0.00 | 0.00 | 40 | 1009.0 |
| 20260502183506 | 14 | 0 | 0.0 | 1.6 | 0.00 | 0.00 | 0.00 | 40 | 1009.0 |
| 20260502183442 | 14 | 0 | 0.0 | 1.6 | 0.00 | 0.00 | 0.00 | 40 | 1009.0 |
| 20260502183406 | 14 | 0 | 0.0 | 1.6 | 0.00 | 0.00 | 0.00 | 41 | 1009.1 |
| 20260502183305 | 14 | 0 | 0.0 | 1.6 | 0.00 | 0.00 | 0.00 | 43 | 1009.2 |
| 20260502183239 | 14 | 0 | 0.0 | 1.6 | 0.00 | 0.00 | 0.00 | 42 | 1009.2 |
| 20260502183235 | 14 | 0 | 0.0 | 1.6 | 0.00 | 0.00 | 0.00 | 43 | 1009.2 |
| 20260502183230 | 14 | 0 | 0.0 | 1.6 | 0.00 | 0.00 | 0.00 | 42 | 1009.2 |
| 20260502183021 | 14 | 360 | 0.0 | 1.6 | 0.00 | 0.00 | 0.00 | 43 | 1009.2 |
| 20260502182904 | 14 | 0 | 0.0 | 1.6 | 0.00 | 0.00 | 0.00 | 43 | 1009.2 |
| 20260502182824 | 14 | 0 | 0.0 | 1.6 | 0.00 | 0.00 | 0.00 | 42 | 1009.2 |
| 20260502182710 | 14 | 0 | 0.0 | 0.0 | 0.00 | 0.00 | 0.00 | 43 | 1009.1 |
| 20260502182521 | 14 | 360 | 0.0 | 0.0 | 0.00 | 0.00 | 0.00 | 40 | 1009.1 |
| 20260502182440 | 14 | 0 | 0.0 | 0.0 | 0.00 | 0.00 | 0.00 | 40 | 1009.1 |
| 20260502182400 | 14 | 0 | 0.0 | 0.0 | 0.00 | 0.00 | 0.00 | 43 | 1009.1 |
| 20260502182300 | 14 | 0 | 0.0 | 0.0 | 0.00 | 0.00 | 0.00 | 42 | 1009.1 |
| 20260502182200 | 14 | 0 | 0.0 | 0.0 | 0.00 | 0.00 | 0.00 | 42 | 1009.1 |
| 20260502182059 | 14 | 0 | 0.0 | 0.0 | 0.00 | 0.00 | 0.00 | 42 | 1009.1 |
| 20260502182021 | 14 | 360 | 0.0 | 0.0 | 0.00 | 0.00 | 0.00 | 42 | 1009.0 |
| 20260502182018 | 14 | 0 | 0.0 | 0.0 | 0.00 | 0.00 | 0.00 | 42 | 1009.0 |
| 20260502181907 | 14 | 0 | 0.0 | 1.6 | 0.00 | 0.00 | 0.00 | 41 | 1009.0 |
| 20260502181657 | 14 | 0 | 0.0 | 1.6 | 0.00 | 0.00 | 0.00 | 41 | 1009.1 |
| 20260502181629 | 14 | 0 | 0.0 | 9.7 | 0.00 | 0.00 | 0.00 | 40 | 1009.1 |
| 20260502181624 | 15 | 0 | 0.0 | 9.7 | 0.00 | 0.00 | 0.00 | 39 | 1009.2 |
| 20260502181619 | 14 | 0 | 0.0 | 9.7 | 0.00 | 0.00 | 0.00 | 42 | 1009.2 |
| 20260502181521 | 14 | 360 | 0.0 | 9.7 | 0.00 | 0.00 | 0.00 | 40 | 1009.0 |
| 20260502181502 | 14 | 0 | 0.0 | 9.7 | 0.00 | 0.00 | 0.00 | 40 | 1009.1 |
| 20260502181255 | 15 | 0 | 0.0 | 9.7 | 0.00 | 0.00 | 0.00 | 39 | 1009.2 |
| 20260502181154 | 15 | 0 | 0.0 | 9.7 | 0.00 | 0.00 | 0.00 | 40 | 1009.2 |
| 20260502181053 | 15 | 0 | 0.0 | 9.7 | 0.00 | 0.00 | 0.00 | 43 | 1009.3 |
| 20260502181021 | 15 | 360 | 0.0 | 9.7 | 0.00 | 0.00 | 0.00 | 42 | 1009.1 |
| 20260502180951 | 15 | 0 | 0.0 | 9.7 | 0.00 | 0.00 | 0.00 | 42 | 1009.2 |
| 20260502180938 | 15 | 0 | 0.0 | 9.7 | 0.00 | 0.00 | 0.00 | 41 | 1009.2 |
| 20260502180851 | 15 | 0 | 0.0 | 9.7 | 0.00 | 0.00 | 0.00 | 42 | 1009.3 |
| 20260502180751 | 15 | 0 | 0.0 | 9.7 | 0.00 | 0.00 | 0.00 | 41 | 1009.2 |
| 20260502180649 | 15 | 0 | 0.0 | 9.7 | 0.00 | 0.00 | 0.00 | 42 | 1009.2 |
| 20260502180549 | 15 | 0 | 0.0 | 4.8 | 0.00 | 0.00 | 0.00 | 40 | 1009.2 |
| 20260502180521 | 15 | 360 | 0.0 | 4.8 | 0.00 | 0.00 | 0.00 | 40 | 1009.1 |
| 20260502180449 | 15 | 0 | 0.0 | 4.8 | 0.00 | 0.00 | 0.00 | 40 | 1009.2 |
| 20260502180435 | 15 | 0 | 0.0 | 4.8 | 0.00 | 0.00 | 0.00 | 41 | 1009.2 |
| 20260502180348 | 15 | 0 | 0.0 | 4.8 | 0.00 | 0.00 | 0.00 | 42 | 1009.2 |
| 20260502180249 | 15 | 0 | 0.0 | 4.8 | 0.00 | 0.00 | 0.00 | 41 | 1009.2 |
| 20260502180206 | 15 | 0 | 0.0 | 9.7 | 0.00 | 0.00 | 0.00 | 43 | 1009.2 |
| 20260502180201 | 15 | 0 | 0.0 | 9.7 | 0.00 | 0.00 | 0.00 | 41 | 1009.2 |
| 20260502180152 | 15 | 0 | 0.0 | 9.7 | 0.00 | 0.00 | 0.00 | 43 | 1009.2 |
| 20260502170422 | 13 | 0 | 0.0 | 3.2 | 0.00 | 0.00 | 0.00 | 47 | 1009.3 |
| 20260502170334 | 13 | 0 | 0.0 | 3.2 | 0.00 | 0.00 | 0.00 | 48 | 1009.3 |
| 20260502170330 | 13 | 0 | 0.0 | 3.2 | 0.00 | 0.00 | 0.00 | 47 | 1009.3 |
| 20260502170152 | 13 | 0 | 0.0 | 3.2 | 0.00 | 0.00 | 0.00 | 45 | 1009.3 |
| 20260502170149 | 13 | 0 | 0.0 | 1.6 | 0.00 | 0.00 | 0.00 | 44 | 1009.3 |
| 20260502170143 | 13 | 0 | 0.0 | 3.2 | 0.00 | 0.00 | 0.00 | 47 | 1009.2 |
| 20260502164308 | 14 | 0 | 0.0 | 1.6 | 0.00 | 0.00 | 0.00 | 49 | 1009.5 |
| 20260502164207 | 14 | 0 | 0.0 | 1.6 | 0.00 | 0.00 | 0.00 | 48 | 1009.5 |
| 20260502164106 | 13 | 0 | 0.0 | 1.6 | 0.00 | 0.00 | 0.00 | 48 | 1009.5 |
| 20260502164021 | 13 | 360 | 0.0 | 1.6 | 0.00 | 0.00 | 0.00 | 47 | 1009.6 |
| 20260502164006 | 13 | 0 | 0.0 | 1.6 | 0.00 | 0.00 | 0.00 | 47 | 1009.6 |
| 20260502163922 | 13 | 0 | 0.0 | 1.6 | 0.00 | 0.00 | 0.00 | 47 | 1009.6 |
| 20260502163905 | 13 | 0 | 0.0 | 1.6 | 0.00 | 0.00 | 0.00 | 47 | 1009.5 |
| 20260502163804 | 13 | 0 | 0.0 | 4.8 | 0.00 | 0.00 | 0.00 | 47 | 1009.5 |
| 20260502163704 | 13 | 0 | 0.0 | 4.8 | 0.00 | 0.00 | 0.00 | 47 | 1009.4 |
| 20260502163604 | 13 | 0 | 0.0 | 6.4 | 0.00 | 0.00 | 0.00 | 46 | 1009.4 |
| 20260502163551 | 13 | 360 | 0.0 | 6.4 | 0.00 | 0.00 | 0.00 | 49 | 1009.5 |
| 20260502163518 | 13 | 0 | 0.0 | 6.4 | 0.00 | 0.00 | 0.00 | 49 | 1009.5 |
| 20260502163509 | 13 | 0 | 0.0 | 6.4 | 0.00 | 0.00 | 0.00 | 48 | 1009.5 |
| 20260502163303 | 13 | 0 | 0.0 | 6.4 | 0.00 | 0.00 | 0.00 | 50 | 1009.6 |
| 20260502163202 | 13 | 0 | 0.0 | 14.5 | 0.00 | 0.00 | 0.00 | 46 | 1009.5 |
| 20260502163102 | 13 | 0 | 0.0 | 14.5 | 0.00 | 0.00 | 0.00 | 46 | 1009.6 |
| 20260502163021 | 13 | 360 | 0.0 | 12.9 | 0.00 | 0.00 | 0.00 | 47 | 1009.6 |
| 20260502163001 | 13 | 0 | 0.0 | 14.5 | 0.00 | 0.00 | 0.00 | 47 | 1009.6 |
| 20260502162921 | 13 | 0 | 0.0 | 14.5 | 0.00 | 0.00 | 0.00 | 46 | 1009.6 |
| 20260502162901 | 13 | 0 | 0.0 | 14.5 | 0.00 | 0.00 | 0.00 | 45 | 1009.7 |
| 20260502162812 | 13 | 0 | 0.0 | 14.5 | 0.00 | 0.00 | 0.00 | 45 | 1009.7 |
| 20260502162808 | 13 | 0 | 0.0 | 14.5 | 0.00 | 0.00 | 0.00 | 45 | 1009.6 |
| 20260502162556 | 13 | 0 | 0.0 | 14.5 | 0.00 | 0.00 | 0.00 | 45 | 1009.7 |
| 20260502162521 | 13 | 360 | 0.0 | 12.9 | 0.00 | 0.00 | 0.00 | 45 | 1009.7 |
| 20260502162455 | 13 | 0 | 0.0 | 14.5 | 0.00 | 0.00 | 0.00 | 45 | 1009.7 |
| 20260502162419 | 13 | 0 | 0.0 | 14.5 | 0.00 | 0.00 | 0.00 | 45 | 1009.7 |
| 20260502162407 | 13 | 0 | 0.0 | 14.5 | 0.00 | 0.00 | 0.00 | 46 | 1009.8 |
| 20260502162403 | 13 | 0 | 0.0 | 14.5 | 0.00 | 0.00 | 0.00 | 46 | 1009.7 |
| 20260502162154 | 13 | 0 | 0.0 | 12.9 | 0.00 | 0.00 | 0.00 | 45 | 1009.8 |
| 20260502162053 | 13 | 0 | 0.0 | 12.9 | 0.00 | 0.00 | 0.00 | 46 | 1009.7 |
| 20260502162021 | 13 | 360 | 0.0 | 12.9 | 0.00 | 0.00 | 0.00 | 45 | 1009.7 |
| 20260502161953 | 13 | 0 | 0.0 | 6.4 | 0.00 | 0.00 | 0.00 | 45 | 1009.7 |
| 20260502161917 | 13 | 0 | 0.0 | 6.4 | 0.00 | 0.00 | 0.00 | 47 | 1009.7 |
| 20260502161852 | 13 | 0 | 0.0 | 6.4 | 0.00 | 0.00 | 0.00 | 47 | 1009.7 |
| 20260502161752 | 13 | 0 | 0.0 | 6.4 | 0.00 | 0.00 | 0.00 | 47 | 1009.7 |
| 20260502161651 | 13 | 0 | 0.0 | 6.4 | 0.00 | 0.00 | 0.00 | 47 | 1009.7 |
| 20260502161641 | 13 | 0 | 0.0 | 6.4 | 0.00 | 0.00 | 0.00 | 45 | 1009.7 |
| 20260502161551 | 13 | 0 | 0.0 | 6.4 | 0.00 | 0.00 | 0.00 | 49 | 1009.8 |
| 20260502161524 | 13 | 0 | 0.0 | 6.4 | 0.00 | 0.00 | 0.00 | 49 | 1009.7 |
| 20260502161521 | 13 | 360 | 0.0 | 6.4 | 0.00 | 0.00 | 0.00 | 49 | 1009.7 |
| 20260502161350 | 13 | 0 | 0.0 | 6.4 | 0.00 | 0.00 | 0.00 | 45 | 1009.8 |
| 20260502161250 | 13 | 0 | 0.0 | 6.4 | 0.00 | 0.00 | 0.00 | 46 | 1009.8 |
| 20260502161150 | 13 | 0 | 0.0 | 6.4 | 0.00 | 0.00 | 0.00 | 47 | 1009.8 |
| 20260502161048 | 13 | 0 | 0.0 | 6.4 | 0.00 | 0.00 | 0.00 | 48 | 1009.8 |
| 20260502161021 | 13 | 360 | 0.0 | 6.4 | 0.00 | 0.00 | 0.00 | 49 | 1009.8 |
| 20260502160948 | 13 | 0 | 0.0 | 6.4 | 0.00 | 0.00 | 0.00 | 49 | 1009.8 |
| 20260502160917 | 13 | 0 | 0.0 | 6.4 | 0.00 | 0.00 | 0.00 | 49 | 1009.8 |
| 20260502160909 | 13 | 0 | 0.0 | 6.4 | 0.00 | 0.00 | 0.00 | 49 | 1009.8 |
| 20260502160755 | 13 | 0 | 0.0 | 6.4 | 0.00 | 0.00 | 0.00 | 47 | 1009.9 |
| 20260502160636 | 13 | 0 | 0.0 | 6.4 | 0.00 | 0.00 | 0.00 | 48 | 1010.1 |
| 20260502160546 | 13 | 0 | 0.0 | 6.4 | 0.00 | 0.00 | 0.00 | 50 | 1010.1 |
| 20260502160523 | 13 | 0 | 0.0 | 6.4 | 0.00 | 0.00 | 0.00 | 48 | 1010.1 |
| 20260502160521 | 13 | 360 | 0.0 | 6.4 | 0.00 | 0.00 | 0.00 | 50 | 1010.1 |
| 20260502160345 | 13 | 0 | 0.0 | 1.6 | 0.00 | 0.00 | 0.00 | 47 | 1010.0 |
| 20260502160242 | 13 | 0 | 0.0 | 1.6 | 0.00 | 0.00 | 0.00 | 46 | 1010.0 |
| 20260502160143 | 13 | 0 | 0.0 | 1.6 | 0.00 | 0.00 | 0.00 | 46 | 1009.9 |
| 20260502152320 | 11 | 0 | 0.0 | 9.7 | 0.00 | 0.00 | 0.00 | 55 | 1009.1 |
| 20260502152219 | 11 | 0 | 0.0 | 9.7 | 0.00 | 0.00 | 0.00 | 56 | 1009.3 |
| 20260502152141 | 11 | 0 | 0.0 | 9.7 | 0.00 | 0.00 | 0.00 | 56 | 1009.5 |
| 20260502152119 | 11 | 0 | 0.0 | 9.7 | 0.00 | 0.00 | 0.00 | 56 | 1009.3 |
| 20260502152029 | 11 | 0 | 0.0 | 9.7 | 0.00 | 0.00 | 0.00 | 55 | 1009.7 |
| 20260502152021 | 11 | 360 | 0.0 | 9.7 | 0.00 | 0.00 | 0.00 | 55 | 1009.5 |
| 20260502151817 | 11 | 0 | 0.0 | 0.0 | 0.00 | 0.00 | 0.00 | 57 | 1009.5 |
| 20260502151730 | 11 | 0 | 0.0 | 0.0 | 0.00 | 0.00 | 0.00 | 55 | 1009.4 |
| 20260502151726 | 11 | 0 | 0.0 | 0.0 | 0.00 | 0.00 | 0.00 | 56 | 1009.8 |
| 20260502151521 | 11 | 360 | 0.0 | 0.0 | 0.00 | 0.00 | 0.00 | 55 | 1008.8 |
| 20260502151516 | 11 | 0 | 0.0 | 0.0 | 0.00 | 0.00 | 0.00 | 55 | 1008.7 |
| 20260502151419 | 11 | 0 | 0.0 | 0.0 | 0.00 | 0.00 | 0.00 | 56 | 1008.9 |
| 20260502151412 | 11 | 0 | 0.0 | 0.0 | 0.00 | 0.00 | 0.00 | 56 | 1008.9 |
| 20260502151316 | 11 | 0 | 0.0 | 0.0 | 0.00 | 0.00 | 0.00 | 58 | 1009.2 |
| 20260502151215 | 11 | 0 | 0.0 | 0.0 | 0.00 | 0.00 | 0.00 | 56 | 1009.1 |
| 20260502151114 | 11 | 0 | 0.0 | 0.0 | 0.00 | 0.00 | 0.00 | 56 | 1008.5 |
| 20260502151034 | 11 | 0 | 0.0 | 8.0 | 0.00 | 0.00 | 0.00 | 56 | 1008.9 |
| 20260502151029 | 11 | 0 | 0.0 | 0.0 | 0.00 | 0.00 | 0.00 | 56 | 1008.7 |
| 20260502151021 | 11 | 360 | 0.0 | 0.0 | 0.00 | 0.00 | 0.00 | 56 | 1008.9 |
| 20260502151016 | 11 | 0 | 0.0 | 0.0 | 0.00 | 0.00 | 0.00 | 55 | 1009.0 |
| 20260502150859 | 11 | 0 | 0.0 | 8.0 | 0.00 | 0.00 | 0.00 | 57 | 1009.2 |
| 20260502150853 | 11 | 0 | 0.0 | 8.0 | 0.00 | 0.00 | 0.00 | 55 | 1009.0 |
| 20260502150735 | 11 | 0 | 0.0 | 8.0 | 0.00 | 0.00 | 0.00 | 56 | 1009.2 |
| 20260502150521 | 11 | 360 | 0.0 | 8.0 | 0.00 | 0.00 | 0.00 | 57 | 1009.3 |
| 20260502150310 | 11 | 0 | 0.0 | 8.0 | 0.00 | 0.00 | 0.00 | 55 | 1009.1 |
| 20260502150210 | 11 | 0 | 0.0 | 8.0 | 0.00 | 0.00 | 0.00 | 55 | 1009.3 |
| 20260502150150 | 11 | 0 | 0.0 | 8.0 | 0.00 | 0.00 | 0.00 | 57 | 1009.2 |
| 20260502150145 | 11 | 0 | 0.0 | 8.0 | 0.00 | 0.00 | 0.00 | 55 | 1009.2 |
| 20260502130712 | 10 | 0 | 0.0 | 6.4 | 0.00 | 0.00 | 0.00 | 71 | 1010.1 |
| 20260502130612 | 10 | 0 | 0.0 | 6.4 | 0.00 | 0.00 | 0.00 | 72 | 1010.1 |
| 20260502130521 | 10 | 360 | 0.0 | 6.4 | 0.00 | 0.00 | 0.00 | 73 | 1010.1 |
| 20260502130512 | 10 | 0 | 0.0 | 6.4 | 0.00 | 0.00 | 0.00 | 73 | 1010.1 |
| 20260502130412 | 10 | 0 | 0.0 | 3.2 | 0.00 | 0.00 | 0.00 | 73 | 1010.3 |
| 20260502130351 | 10 | 0 | 0.0 | 3.2 | 0.00 | 0.00 | 0.00 | 73 | 1010.3 |
| 20260502130311 | 10 | 0 | 0.0 | 3.2 | 0.00 | 0.00 | 0.00 | 73 | 1010.3 |
| 20260502130211 | 10 | 0 | 0.0 | 3.2 | 0.00 | 0.00 | 0.00 | 72 | 1010.2 |
| 20260502130122 | 10 | 0 | 0.0 | 1.6 | 0.00 | 0.00 | 0.00 | 71 | 1010.2 |
| 20260502130118 | 10 | 0 | 0.0 | 1.6 | 0.00 | 0.00 | 0.00 | 72 | 1010.2 |
| 20260502123700 | 10 | 0 | 0.0 | 0.0 | 0.00 | 0.00 | 0.00 | 78 | 1009.7 |
| 20260502123611 | 10 | 0 | 0.0 | 0.0 | 0.00 | 0.00 | 0.00 | 77 | 1010.0 |
| 20260502123607 | 10 | 0 | 0.0 | 0.0 | 0.00 | 0.00 | 0.00 | 78 | 1009.7 |
| 20260502123521 | 10 | 360 | 0.0 | 0.0 | 0.00 | 0.00 | 0.00 | 77 | 1010.0 |
| 20260502123343 | 10 | 0 | 0.0 | 0.0 | 0.00 | 0.00 | 0.00 | 78 | 1010.1 |
| 20260502123257 | 10 | 0 | 0.0 | 0.0 | 0.00 | 0.00 | 0.00 | 78 | 1009.9 |
| 20260502123157 | 10 | 0 | 0.0 | 1.6 | 0.00 | 0.00 | 0.00 | 77 | 1010.2 |
| 20260502123109 | 10 | 0 | 0.0 | 1.6 | 0.00 | 0.00 | 0.00 | 77 | 1010.2 |
| 20260502123105 | 10 | 0 | 0.0 | 1.6 | 0.00 | 0.00 | 0.00 | 77 | 1010.2 |
| 20260502123022 | 10 | 360 | 0.0 | 1.6 | 0.00 | 0.00 | 0.00 | 77 | 1010.2 |
| 20260502122843 | 10 | 0 | 0.0 | 1.6 | 0.00 | 0.00 | 0.00 | 77 | 1010.3 |
| 20260502122755 | 10 | 0 | 0.0 | 1.6 | 0.00 | 0.00 | 0.00 | 77 | 1010.3 |
| 20260502122713 | 10 | 0 | 0.0 | 1.6 | 0.00 | 0.00 | 0.00 | 78 | 1010.1 |
| 20260502122600 | 10 | 0 | 0.0 | 1.6 | 0.00 | 0.00 | 0.00 | 78 | 1010.2 |
| 20260502122521 | 10 | 360 | 0.0 | 1.6 | 0.00 | 0.00 | 0.00 | 78 | 1010.0 |
| 20260502122351 | 10 | 0 | 0.0 | 1.6 | 0.00 | 0.00 | 0.00 | 79 | 1009.9 |
| 20260502122342 | 10 | 0 | 0.0 | 4.8 | 0.00 | 0.00 | 0.00 | 79 | 1009.9 |
| 20260502122249 | 10 | 0 | 0.0 | 6.4 | 0.00 | 0.00 | 0.00 | 80 | 1009.7 |
| 20260502122148 | 10 | 0 | 0.0 | 6.4 | 0.00 | 0.00 | 0.00 | 80 | 1009.8 |
| 20260502122107 | 10 | 0 | 0.0 | 6.4 | 0.00 | 0.00 | 0.00 | 80 | 1009.5 |
| 20260502122048 | 10 | 0 | 0.0 | 6.4 | 0.00 | 0.00 | 0.00 | 81 | 1010.1 |
| 20260502122021 | 10 | 360 | 0.0 | 6.4 | 0.00 | 0.00 | 0.00 | 81 | 1009.5 |
| 20260502121958 | 10 | 0 | 0.0 | 6.4 | 0.00 | 0.00 | 0.00 | 81 | 1009.5 |
| 20260502121948 | 10 | 0 | 0.0 | 6.4 | 0.00 | 0.00 | 0.00 | 80 | 1009.5 |
| 20260502121759 | 9 | 0 | 0.0 | 12.9 | 0.00 | 0.00 | 0.00 | 80 | 1010.3 |
| 20260502121754 | 10 | 0 | 0.0 | 12.9 | 0.00 | 0.00 | 0.00 | 80 | 1010.3 |
| 20260502121627 | 9 | 0 | 0.0 | 12.9 | 0.00 | 0.00 | 0.00 | 80 | 1010.3 |
| 20260502121621 | 9 | 0 | 0.0 | 12.9 | 0.00 | 0.00 | 0.00 | 80 | 1010.2 |
| 20260502121521 | 10 | 360 | 0.0 | 12.9 | 0.00 | 0.00 | 0.00 | 80 | 1010.3 |
| 20260502121508 | 9 | 0 | 0.0 | 12.9 | 0.00 | 0.00 | 0.00 | 80 | 1010.3 |
| 20260502121459 | 10 | 0 | 0.0 | 12.9 | 0.00 | 0.00 | 0.00 | 80 | 1010.3 |
| 20260502121143 | 9 | 0 | 0.0 | 12.9 | 0.00 | 0.00 | 0.00 | 80 | 1010.3 |
| 20260502121108 | 10 | 0 | 1.6 | 14.5 | 0.00 | 0.00 | 0.00 | 81 | 1010.4 |
| 20260502121042 | 10 | 0 | 0.0 | 12.9 | 0.00 | 0.00 | 0.00 | 80 | 1010.4 |
| 20260502121021 | 10 | 360 | 0.0 | 12.9 | 0.00 | 0.00 | 0.00 | 80 | 1010.4 |
| 20260502120956 | 10 | 0 | 1.6 | 12.9 | 0.00 | 0.00 | 0.00 | 80 | 1010.4 |
| 20260502120947 | 10 | 0 | 1.6 | 14.5 | 0.00 | 0.00 | 0.00 | 81 | 1010.4 |
| 20260502120741 | 10 | 0 | 1.6 | 14.5 | 0.00 | 0.00 | 0.00 | 81 | 1010.3 |
| 20260502120640 | 10 | 0 | 1.6 | 14.5 | 0.00 | 0.00 | 0.00 | 81 | 1010.2 |
| 20260502120539 | 10 | 0 | 1.6 | 14.5 | 0.00 | 0.00 | 0.00 | 81 | 1010.2 |
| 20260502120521 | 10 | 360 | 0.0 | 9.7 | 0.00 | 0.00 | 0.00 | 81 | 1010.2 |
| 20260502120440 | 10 | 0 | 1.6 | 14.5 | 0.00 | 0.00 | 0.00 | 81 | 1010.2 |
| 20260502120339 | 10 | 0 | 1.6 | 14.5 | 0.00 | 0.00 | 0.00 | 81 | 1010.1 |
| 20260502120239 | 10 | 0 | 1.6 | 14.5 | 0.00 | 0.00 | 0.00 | 81 | 1010.1 |
| 20260502120139 | 10 | 0 | 0.0 | 14.5 | 0.00 | 0.00 | 0.00 | 82 | 1010.1 |
| 20260502115837 | 10 | 0 | 0.0 | 1.6 | 0.00 | 0.00 | 0.00 | 83 | 1009.9 |
| 20260502115737 | 10 | 0 | 0.0 | 1.6 | 0.00 | 0.00 | 0.00 | 83 | 1010.0 |
| 20260502115635 | 10 | 0 | 0.0 | 4.8 | 0.00 | 0.00 | 0.00 | 83 | 1010.1 |
| 20260502115536 | 10 | 360 | 0.0 | 17.7 | 0.00 | 0.00 | 0.00 | 83 | 1010.4 |
| 20260502115435 | 10 | 0 | 0.0 | 17.7 | 0.00 | 0.00 | 0.00 | 83 | 1010.3 |
| 20260502115353 | 10 | 0 | 0.0 | 17.7 | 0.00 | 0.00 | 0.00 | 83 | 1010.2 |
| 20260502115343 | 10 | 0 | 0.0 | 17.7 | 0.00 | 0.00 | 0.00 | 83 | 1010.2 |
| 20260502115146 | 10 | 0 | 0.0 | 17.7 | 0.00 | 0.00 | 0.00 | 83 | 1010.2 |
| 20260502115142 | 10 | 0 | 0.0 | 17.7 | 0.00 | 0.00 | 0.00 | 83 | 1010.1 |
| 20260502115021 | 10 | 360 | 0.0 | 17.7 | 0.00 | 0.00 | 0.00 | 83 | 1010.3 |
| 20260502114933 | 10 | 0 | 1.6 | 17.7 | 0.00 | 0.00 | 0.00 | 83 | 1010.2 |
| 20260502114832 | 10 | 0 | 1.6 | 17.7 | 0.00 | 0.00 | 0.00 | 83 | 1010.2 |
| 20260502114732 | 10 | 0 | 1.6 | 17.7 | 0.00 | 0.00 | 0.00 | 83 | 1010.1 |
| 20260502114644 | 10 | 0 | 0.0 | 4.8 | 0.00 | 0.00 | 0.00 | 84 | 1010.0 |
| 20260502114640 | 10 | 0 | 0.0 | 17.7 | 0.00 | 0.00 | 0.00 | 83 | 1010.1 |
| 20260502114536 | 10 | 360 | 0.0 | 4.8 | 0.00 | 0.00 | 0.00 | 84 | 1010.1 |
| 20260502114428 | 10 | 0 | 0.0 | 4.8 | 0.00 | 0.00 | 0.00 | 84 | 1010.0 |
| 20260502114327 | 10 | 0 | 0.0 | 4.8 | 0.00 | 0.00 | 0.00 | 85 | 1010.0 |
| 20260502114240 | 10 | 0 | 0.0 | 8.0 | 0.00 | 0.00 | 0.00 | 85 | 1010.1 |
| 20260502114235 | 10 | 0 | 0.0 | 4.8 | 0.00 | 0.00 | 0.00 | 85 | 1010.1 |
| 20260502114036 | 10 | 360 | 0.0 | 8.0 | 0.00 | 0.00 | 0.00 | 85 | 1010.2 |
| 20260502114026 | 10 | 0 | 0.0 | 8.0 | 0.00 | 0.00 | 0.00 | 85 | 1010.1 |
| 20260502113925 | 10 | 0 | 0.0 | 8.0 | 0.00 | 0.00 | 0.00 | 85 | 1010.1 |
| 20260502113825 | 10 | 0 | 0.0 | 8.0 | 0.00 | 0.00 | 0.00 | 85 | 1010.1 |
| 20260502113725 | 10 | 0 | 0.0 | 8.0 | 0.00 | 0.00 | 0.00 | 85 | 1010.1 |
| 20260502113625 | 10 | 0 | 0.0 | 8.0 | 0.00 | 0.00 | 0.00 | 85 | 1010.1 |
| 20260502113523 | 10 | 0 | 0.0 | 8.0 | 0.00 | 0.00 | 0.00 | 85 | 1010.1 |
| 20260502113521 | 10 | 360 | 0.0 | 8.0 | 0.00 | 0.00 | 0.00 | 85 | 1010.2 |
| 20260502113423 | 10 | 0 | 0.0 | 8.0 | 0.00 | 0.00 | 0.00 | 85 | 1010.1 |
| 20260502113322 | 10 | 0 | 0.0 | 8.0 | 0.00 | 0.00 | 0.00 | 85 | 1010.1 |
| 20260502113222 | 10 | 0 | 0.0 | 8.0 | 0.00 | 0.00 | 0.00 | 85 | 1010.1 |
| 20260502113122 | 10 | 0 | 0.0 | 1.6 | 0.00 | 0.00 | 0.00 | 85 | 1010.0 |
| 20260502113022 | 10 | 0 | 0.0 | 1.6 | 0.00 | 0.00 | 0.00 | 85 | 1010.0 |
| 20260502112921 | 10 | 0 | 0.0 | 1.6 | 0.00 | 0.00 | 0.00 | 85 | 1009.9 |
| 20260502112820 | 10 | 0 | 0.0 | 0.0 | 0.00 | 0.00 | 0.00 | 85 | 1009.9 |
| 20260502112720 | 10 | 0 | 0.0 | 0.0 | 0.00 | 0.00 | 0.00 | 85 | 1009.9 |
| 20260502112619 | 10 | 0 | 0.0 | 0.0 | 0.00 | 0.00 | 0.00 | 85 | 1009.9 |
| 20260502112521 | 10 | 360 | 0.0 | 0.0 | 0.00 | 0.00 | 0.00 | 85 | 1010.0 |
| 20260502112518 | 10 | 0 | 0.0 | 0.0 | 0.00 | 0.00 | 0.00 | 85 | 1010.0 |
| 20260502112418 | 10 | 0 | 0.0 | 0.0 | 0.00 | 0.00 | 0.00 | 86 | 1009.9 |
| 20260502112317 | 10 | 0 | 0.0 | 4.8 | 0.00 | 0.00 | 0.00 | 86 | 1009.8 |
| 20260502112217 | 10 | 0 | 0.0 | 4.8 | 0.00 | 0.00 | 0.00 | 86 | 1009.8 |
| 20260502112117 | 10 | 0 | 0.0 | 4.8 | 0.00 | 0.00 | 0.00 | 86 | 1009.9 |
| 20260502112029 | 9 | 259 | 0.0 | 4.8 | 0.00 | 0.00 | 0.00 | 86 | 1009.8 |
| 20260502112025 | 10 | 344 | 0.0 | 4.8 | 0.00 | 0.00 | 0.00 | 86 | 1009.8 |
| 20260502112021 | 10 | 360 | 0.0 | 4.8 | 0.00 | 0.00 | 0.00 | 86 | 1009.9 |
| 20260502111833 | 9 | 259 | 0.0 | 4.8 | 0.00 | 0.00 | 0.00 | 86 | 1009.8 |
| 20260502111815 | 9 | 259 | 0.0 | 4.8 | 0.00 | 0.00 | 0.00 | 86 | 1009.8 |
| 20260502111715 | 9 | 290 | 0.0 | 6.4 | 0.00 | 0.00 | 0.00 | 86 | 1009.8 |
| 20260502111613 | 9 | 275 | 0.0 | 11.3 | 0.00 | 0.00 | 0.00 | 86 | 1009.8 |
| 20260502111527 | 9 | 242 | 0.0 | 11.3 | 0.00 | 0.00 | 0.00 | 86 | 1009.8 |
| 20260502111523 | 9 | 192 | 0.0 | 11.3 | 0.00 | 0.00 | 0.00 | 86 | 1009.8 |
| 20260502111521 | 9 | 184 | 0.0 | 11.3 | 0.00 | 0.00 | 0.00 | 86 | 1009.9 |
| 20260502111331 | 9 | 0 | 0.0 | 11.3 | 0.00 | 0.00 | 0.00 | 86 | 1009.7 |
| 20260502111326 | 9 | 0 | 0.0 | 11.3 | 0.00 | 0.00 | 0.00 | 86 | 1009.7 |
| 20260502111322 | 9 | 263 | 0.0 | 11.3 | 0.00 | 0.00 | 0.00 | 86 | 1009.7 |
| 20260502111125 | 9 | 241 | 0.0 | 11.3 | 0.00 | 0.00 | 0.00 | 86 | 1009.8 |
| 20260502111121 | 9 | 250 | 0.0 | 11.3 | 0.00 | 0.00 | 0.00 | 86 | 1009.8 |
| 20260502111021 | 9 | 241 | 0.0 | 11.3 | 0.00 | 0.00 | 0.00 | 86 | 1009.9 |
| 20260502110911 | 9 | 277 | 0.0 | 11.3 | 0.00 | 0.00 | 0.00 | 86 | 1009.8 |
| 20260502110832 | 9 | 0 | 0.0 | 11.3 | 0.00 | 0.00 | 0.00 | 86 | 1009.8 |
| 20260502110810 | 9 | 0 | 0.0 | 11.3 | 0.00 | 0.00 | 0.00 | 86 | 1009.8 |
| 20260502110709 | 9 | 229 | 0.0 | 11.3 | 0.00 | 0.00 | 0.00 | 86 | 1009.7 |
| 20260502110609 | 9 | 244 | 0.0 | 1.6 | 0.00 | 0.00 | 0.00 | 86 | 1009.7 |
| 20260502110536 | 9 | 242 | 0.0 | 0.0 | 0.00 | 0.00 | 0.00 | 86 | 1009.8 |
| 20260502110510 | 9 | 0 | 0.0 | 0.0 | 0.00 | 0.00 | 0.00 | 86 | 1009.7 |
| 20260502110428 | 9 | 244 | 0.0 | 0.0 | 0.00 | 0.00 | 0.00 | 86 | 1009.6 |
| 20260502110424 | 9 | 244 | 0.0 | 0.0 | 0.00 | 0.00 | 0.00 | 86 | 1009.7 |
| 20260502110416 | 9 | 244 | 0.0 | 0.0 | 0.00 | 0.00 | 0.00 | 86 | 1009.7 |
| 20260502110206 | 9 | 265 | 0.0 | 0.0 | 0.00 | 0.00 | 0.00 | 86 | 1009.7 |
| 20260502110106 | 9 | 266 | 0.0 | 0.0 | 0.00 | 0.00 | 0.00 | 86 | 1009.7 |
| 20260502110021 | 9 | 266 | 0.0 | 0.0 | 0.00 | 0.00 | 0.00 | 86 | 1009.8 |
| 20260502110007 | 9 | 266 | 0.0 | 0.0 | 0.00 | 0.00 | 0.00 | 86 | 1009.7 |
| 20260502105907 | 9 | 253 | 0.0 | 0.0 | 0.00 | 0.00 | 0.00 | 86 | 1009.7 |
| 20260502105832 | 9 | 253 | 0.0 | 0.0 | 0.00 | 0.00 | 0.00 | 86 | 1009.7 |
| 20260502105806 | 9 | 254 | 0.0 | 0.0 | 0.00 | 0.00 | 0.00 | 86 | 1009.6 |
| 20260502105727 | 9 | 254 | 0.0 | 0.0 | 0.00 | 0.00 | 0.00 | 86 | 1009.6 |
| 20260502105614 | 9 | 253 | 0.0 | 0.0 | 0.00 | 0.00 | 0.00 | 86 | 1009.6 |
| 20260502105521 | 9 | 261 | 0.0 | 0.0 | 0.00 | 0.00 | 0.00 | 86 | 1009.7 |
| 20260502105404 | 9 | 262 | 0.0 | 0.0 | 0.00 | 0.00 | 0.00 | 86 | 1009.6 |
| 20260502105330 | 9 | 262 | 0.0 | 0.0 | 0.00 | 0.00 | 0.00 | 86 | 1009.6 |
| 20260502105317 | 9 | 290 | 0.0 | 4.8 | 0.00 | 0.00 | 0.00 | 86 | 1009.6 |
| 20260502105313 | 9 | 262 | 0.0 | 4.8 | 0.00 | 0.00 | 0.00 | 86 | 1009.6 |
| 20260502105103 | 9 | 253 | 0.0 | 4.8 | 0.00 | 0.00 | 0.00 | 86 | 1009.5 |
| 20260502105036 | 9 | 273 | 0.0 | 4.8 | 0.00 | 0.00 | 0.00 | 86 | 1009.7 |
| 20260502105003 | 9 | 272 | 0.0 | 4.8 | 0.00 | 0.00 | 0.00 | 86 | 1009.6 |
| 20260502104901 | 9 | 0 | 0.0 | 4.8 | 0.00 | 0.00 | 0.00 | 86 | 1009.6 |
| 20260502104829 | 9 | 257 | 0.0 | 4.8 | 0.00 | 0.00 | 0.00 | 86 | 1009.6 |
| 20260502104800 | 9 | 257 | 0.0 | 6.4 | 0.00 | 0.00 | 0.00 | 87 | 1009.6 |
| 20260502104733 | 9 | 252 | 0.0 | 6.4 | 0.00 | 0.00 | 0.00 | 87 | 1009.6 |
| 20260502104621 | 9 | 0 | 0.0 | 6.4 | 0.00 | 0.00 | 0.00 | 87 | 1009.5 |
| 20260502104616 | 9 | 244 | 0.0 | 6.4 | 0.00 | 0.00 | 0.00 | 87 | 1009.6 |
| 20260502104521 | 9 | 194 | 0.0 | 6.4 | 0.00 | 0.00 | 0.00 | 87 | 1009.6 |
| 20260502104332 | 8 | 243 | 0.0 | 6.4 | 0.00 | 0.00 | 0.00 | 87 | 1009.5 |
| 20260502104328 | 9 | 261 | 0.0 | 6.4 | 0.00 | 0.00 | 0.00 | 87 | 1009.5 |
| 20260502104323 | 8 | 0 | 0.0 | 6.4 | 0.00 | 0.00 | 0.00 | 87 | 1009.5 |
| 20260502104317 | 8 | 250 | 0.0 | 6.4 | 0.00 | 0.00 | 0.00 | 87 | 1009.5 |
| 20260502104204 | 8 | 0 | 0.0 | 6.4 | 0.00 | 0.00 | 0.00 | 87 | 1009.5 |
| 20260502104155 | 8 | 246 | 0.0 | 6.4 | 0.00 | 0.00 | 0.00 | 87 | 1009.5 |
| 20260502104022 | 8 | 360 | 0.0 | 6.4 | 0.00 | 0.00 | 0.00 | 87 | 1009.6 |
| 20260502103753 | 8 | 271 | 0.0 | 1.6 | 0.00 | 0.00 | 0.00 | 88 | 1009.5 |
| 20260502103653 | 8 | 0 | 0.0 | 6.4 | 0.00 | 0.00 | 0.00 | 88 | 1009.5 |
| 20260502103552 | 8 | 0 | 0.0 | 6.4 | 0.00 | 0.00 | 0.00 | 88 | 1009.5 |
| 20260502103521 | 8 | 275 | 0.0 | 3.2 | 0.00 | 0.00 | 0.00 | 88 | 1009.6 |
| 20260502103452 | 8 | 275 | 0.0 | 6.4 | 0.00 | 0.00 | 0.00 | 88 | 1009.5 |
| 20260502103350 | 8 | 0 | 0.0 | 6.4 | 0.00 | 0.00 | 0.00 | 88 | 1009.5 |
| 20260502103328 | 8 | 280 | 0.0 | 6.4 | 0.00 | 0.00 | 0.00 | 88 | 1009.5 |
| 20260502103303 | 8 | 0 | 0.0 | 6.4 | 0.00 | 0.00 | 0.00 | 88 | 1009.5 |
| 20260502103258 | 8 | 280 | 0.0 | 6.4 | 0.00 | 0.00 | 0.00 | 88 | 1009.5 |
| 20260502103049 | 8 | 280 | 0.0 | 6.4 | 0.00 | 0.00 | 0.00 | 88 | 1009.5 |
| 20260502103021 | 8 | 360 | 0.0 | 3.2 | 0.00 | 0.00 | 0.00 | 88 | 1009.6 |
| 20260502102949 | 8 | 284 | 0.0 | 6.4 | 0.00 | 0.00 | 0.00 | 88 | 1009.5 |
| 20260502102847 | 8 | 262 | 0.0 | 6.4 | 0.00 | 0.00 | 0.00 | 88 | 1009.5 |
| 20260502102829 | 8 | 0 | 0.0 | 6.4 | 0.00 | 0.00 | 0.00 | 88 | 1009.5 |
| 20260502102822 | 8 | 262 | 0.0 | 6.4 | 0.00 | 0.00 | 0.00 | 88 | 1009.5 |
| 20260502102709 | 8 | 242 | 0.0 | 0.0 | 0.00 | 0.00 | 0.00 | 89 | 1009.5 |
| 20260502102555 | 8 | 243 | 0.0 | 3.2 | 0.00 | 0.00 | 0.00 | 89 | 1009.5 |
| 20260502102521 | 8 | 244 | 0.0 | 3.2 | 0.00 | 0.00 | 0.00 | 89 | 1009.6 |
| 20260502102434 | 8 | 244 | 0.0 | 3.2 | 0.00 | 0.00 | 0.00 | 89 | 1009.5 |
| 20260502102317 | 8 | 244 | 0.0 | 3.2 | 0.00 | 0.00 | 0.00 | 89 | 1009.5 |
| 20260502102312 | 8 | 244 | 0.0 | 3.2 | 0.00 | 0.00 | 0.00 | 89 | 1009.5 |
| 20260502102044 | 8 | 244 | 0.0 | 3.2 | 0.00 | 0.00 | 0.00 | 90 | 1009.5 |
| 20260502102037 | 8 | 244 | 0.0 | 3.2 | 0.00 | 0.00 | 0.00 | 90 | 1009.6 |
| 20260502101954 | 8 | 245 | 0.0 | 3.2 | 0.00 | 0.00 | 0.00 | 90 | 1009.5 |
| 20260502101950 | 8 | 0 | 0.0 | 3.2 | 0.00 | 0.00 | 0.00 | 90 | 1009.5 |
| 20260502101803 | 8 | 0 | 0.0 | 3.2 | 0.00 | 0.00 | 0.00 | 90 | 1009.5 |
| 20260502101650 | 8 | 244 | 0.0 | 3.2 | 0.00 | 0.00 | 0.00 | 90 | 1009.4 |
| 20260502101521 | 8 | 248 | 0.0 | 1.6 | 0.00 | 0.00 | 0.00 | 90 | 1009.6 |
| 20260502101441 | 8 | 248 | 0.0 | 0.0 | 0.00 | 0.00 | 0.00 | 90 | 1009.5 |
| 20260502101359 | 8 | 248 | 0.0 | 0.0 | 0.00 | 0.00 | 0.00 | 90 | 1009.5 |
| 20260502101353 | 8 | 248 | 0.0 | 0.0 | 0.00 | 0.00 | 0.00 | 90 | 1009.5 |
| 20260502101347 | 8 | 248 | 0.0 | 0.0 | 0.00 | 0.00 | 0.00 | 90 | 1009.5 |
| 20260502101151 | 8 | 290 | 0.0 | 0.0 | 0.00 | 0.00 | 0.00 | 90 | 1009.5 |
| 20260502101147 | 8 | 0 | 0.0 | 0.0 | 0.00 | 0.00 | 0.00 | 90 | 1009.5 |
| 20260502101021 | 8 | 360 | 0.0 | 0.0 | 0.00 | 0.00 | 0.00 | 90 | 1009.6 |
| 20260502100937 | 8 | 0 | 0.0 | 0.0 | 0.00 | 0.00 | 0.00 | 90 | 1009.5 |
| 20260502100837 | 8 | 0 | 0.0 | 0.0 | 0.00 | 0.00 | 0.00 | 90 | 1009.5 |
| 20260502100825 | 8 | 232 | 0.0 | 0.0 | 0.00 | 0.00 | 0.00 | 90 | 1009.5 |
| 20260502100749 | 8 | 261 | 0.0 | 0.0 | 0.00 | 0.00 | 0.00 | 90 | 1009.6 |
| 20260502100745 | 8 | 0 | 0.0 | 0.0 | 0.00 | 0.00 | 0.00 | 90 | 1009.5 |
| 20260502100534 | 8 | 263 | 0.0 | 0.0 | 0.00 | 0.00 | 0.00 | 90 | 1009.5 |
| 20260502100521 | 8 | 360 | 0.0 | 0.0 | 0.00 | 0.00 | 0.00 | 90 | 1009.6 |
| 20260502100446 | 8 | 236 | 0.0 | 0.0 | 0.00 | 0.00 | 0.00 | 90 | 1009.5 |
| 20260502100442 | 8 | 262 | 0.0 | 0.0 | 0.00 | 0.00 | 0.00 | 90 | 1009.5 |
| 20260502100325 | 8 | 236 | 0.0 | 0.0 | 0.00 | 0.00 | 0.00 | 90 | 1009.5 |
| 20260502100232 | 8 | 236 | 0.0 | 0.0 | 0.00 | 0.00 | 0.00 | 90 | 1009.5 |
| 20260502100132 | 8 | 0 | 0.0 | 0.0 | 0.00 | 0.00 | 0.00 | 90 | 1009.4 |
| 20260502100111 | 8 | 261 | 0.0 | 0.0 | 0.00 | 0.00 | 0.00 | 89 | 1009.4 |
| 20260502100106 | 8 | 236 | 0.0 | 0.0 | 0.00 | 0.00 | 0.00 | 89 | 1009.4 |
| 20260502091522 | 9 | 261 | 0.0 | 0.0 | 0.00 | 0.00 | 0.00 | 86 | 1009.5 |
| 20260502091505 | 9 | 261 | 0.0 | 0.0 | 0.00 | 0.00 | 0.00 | 86 | 1009.4 |
| 20260502091404 | 9 | 261 | 0.0 | 0.0 | 0.00 | 0.00 | 0.00 | 86 | 1009.3 |
| 20260502091303 | 9 | 261 | 0.0 | 0.0 | 0.00 | 0.00 | 0.00 | 86 | 1009.3 |
| 20260502091229 | 9 | 261 | 0.0 | 0.0 | 0.00 | 0.00 | 0.00 | 86 | 1009.2 |
| 20260502091116 | 9 | 261 | 0.0 | 0.0 | 0.00 | 0.00 | 0.00 | 86 | 1009.2 |
| 20260502091111 | 9 | 0 | 0.0 | 0.0 | 0.00 | 0.00 | 0.00 | 86 | 1009.2 |
| 20260502091021 | 9 | 261 | 0.0 | 0.0 | 0.00 | 0.00 | 0.00 | 86 | 1009.2 |
| 20260502090922 | 9 | 261 | 0.0 | 0.0 | 0.00 | 0.00 | 0.00 | 86 | 1009.2 |
| 20260502090800 | 9 | 0 | 0.0 | 0.0 | 0.00 | 0.00 | 0.00 | 86 | 1009.1 |
| 20260502090700 | 9 | 261 | 0.0 | 0.0 | 0.00 | 0.00 | 0.00 | 86 | 1009.1 |
| 20260502090558 | 9 | 261 | 0.0 | 0.0 | 0.00 | 0.00 | 0.00 | 86 | 1009.2 |
| 20260502090541 | 9 | 261 | 0.0 | 0.0 | 0.00 | 0.00 | 0.00 | 86 | 1009.2 |
| 20260502090537 | 9 | 261 | 0.0 | 0.0 | 0.00 | 0.00 | 0.00 | 86 | 1009.2 |
| 20260502090530 | 9 | 261 | 0.0 | 0.0 | 0.00 | 0.00 | 0.00 | 86 | 1009.2 |
| 20260502090521 | 9 | 261 | 0.0 | 0.0 | 0.00 | 0.00 | 0.00 | 86 | 1009.3 |
| 20260502090306 | 9 | 261 | 0.0 | 0.0 | 0.00 | 0.00 | 0.00 | 86 | 1009.2 |
| 20260502071522 | 10 | 261 | 0.0 | 0.0 | 0.00 | 0.00 | 0.00 | 84 | 1009.5 |
| 20260502071357 | 10 | 261 | 0.0 | 0.0 | 0.00 | 0.00 | 0.00 | 84 | 1009.5 |
| 20260502071255 | 10 | 261 | 0.0 | 0.0 | 0.00 | 0.00 | 0.00 | 84 | 1009.5 |
| 20260502071155 | 10 | 261 | 0.0 | 0.0 | 0.00 | 0.00 | 0.00 | 84 | 1009.5 |
| 20260502071053 | 10 | 261 | 0.0 | 0.0 | 0.00 | 0.00 | 0.00 | 84 | 1009.5 |
| 20260502071021 | 10 | 261 | 0.0 | 0.0 | 0.00 | 0.00 | 0.00 | 84 | 1009.6 |
| 20260502070953 | 10 | 261 | 0.0 | 0.0 | 0.00 | 0.00 | 0.00 | 84 | 1009.5 |
| 20260502070853 | 10 | 261 | 0.0 | 0.0 | 0.00 | 0.00 | 0.00 | 84 | 1009.6 |
| 20260502070810 | 10 | 261 | 0.0 | 0.0 | 0.00 | 0.00 | 0.00 | 84 | 1009.6 |
| 20260502070801 | 10 | 261 | 0.0 | 0.0 | 0.00 | 0.00 | 0.00 | 84 | 1009.6 |
| 20260502070551 | 10 | 261 | 0.0 | 0.0 | 0.00 | 0.00 | 0.00 | 85 | 1009.6 |
| 20260502070522 | 10 | 261 | 0.0 | 0.0 | 0.00 | 0.00 | 0.00 | 85 | 1009.7 |
| 20260502070448 | 10 | 261 | 0.0 | 0.0 | 0.00 | 0.00 | 0.00 | 85 | 1009.6 |
| 20260502070408 | 10 | 261 | 0.0 | 0.0 | 0.00 | 0.00 | 0.00 | 85 | 1009.6 |
| 20260502070402 | 10 | 261 | 0.0 | 0.0 | 0.00 | 0.00 | 0.00 | 85 | 1009.6 |
| 20260502070354 | 10 | 260 | 0.0 | 0.0 | 0.00 | 0.00 | 0.00 | 85 | 1009.6 |
| 20260502070148 | 10 | 261 | 0.0 | 0.0 | 0.00 | 0.00 | 0.00 | 85 | 1009.7 |
| 20260502070059 | 10 | 261 | 0.0 | 0.0 | 0.00 | 0.00 | 0.00 | 86 | 1009.6 |
| 20260502070055 | 10 | 261 | 0.0 | 0.0 | 0.00 | 0.00 | 0.00 | 86 | 1009.6 |
| 20260502070022 | 10 | 261 | 0.0 | 0.0 | 0.00 | 0.00 | 0.00 | 86 | 1009.7 |
| 20260502065845 | 10 | 261 | 0.0 | 0.0 | 0.00 | 0.00 | 0.00 | 86 | 1009.6 |
| 20260502065754 | 10 | 261 | 0.0 | 0.0 | 0.00 | 0.00 | 0.00 | 86 | 1009.6 |
| 20260502065745 | 10 | 0 | 0.0 | 0.0 | 0.00 | 0.00 | 0.00 | 86 | 1009.6 |
| 20260502065644 | 10 | 261 | 0.0 | 0.0 | 0.00 | 0.00 | 0.00 | 86 | 1009.5 |
| 20260502065544 | 10 | 261 | 0.0 | 0.0 | 0.00 | 0.00 | 0.00 | 86 | 1009.5 |
| 20260502065522 | 10 | 360 | 0.0 | 0.0 | 0.00 | 0.00 | 0.00 | 86 | 1009.6 |
| 20260502065441 | 10 | 261 | 0.0 | 3.2 | 0.00 | 0.00 | 0.00 | 86 | 1009.5 |
| 20260502065355 | 10 | 261 | 0.0 | 3.2 | 0.00 | 0.00 | 0.00 | 86 | 1009.6 |
| 20260502065346 | 10 | 261 | 0.0 | 3.2 | 0.00 | 0.00 | 0.00 | 86 | 1009.6 |
| 20260502065141 | 10 | 261 | 0.0 | 3.2 | 0.00 | 0.00 | 0.00 | 87 | 1009.5 |
| 20260502065041 | 10 | 261 | 0.0 | 3.2 | 0.00 | 0.00 | 0.00 | 87 | 1009.5 |
| 20260502065037 | 10 | 261 | 0.0 | 3.2 | 0.00 | 0.00 | 0.00 | 87 | 1009.6 |
| 20260502064939 | 10 | 262 | 0.0 | 3.2 | 0.00 | 0.00 | 0.00 | 87 | 1009.5 |
| 20260502064839 | 10 | 261 | 0.0 | 3.2 | 0.00 | 0.00 | 0.00 | 87 | 1009.6 |
| 20260502064757 | 10 | 261 | 0.0 | 3.2 | 0.00 | 0.00 | 0.00 | 87 | 1009.5 |
| 20260502064752 | 10 | 261 | 0.0 | 3.2 | 0.00 | 0.00 | 0.00 | 87 | 1009.5 |
| 20260502064747 | 10 | 0 | 0.0 | 3.2 | 0.00 | 0.00 | 0.00 | 87 | 1009.5 |
| 20260502064550 | 10 | 259 | 0.0 | 0.0 | 0.00 | 0.00 | 0.00 | 87 | 1009.5 |
| 20260502064546 | 10 | 261 | 0.0 | 3.2 | 0.00 | 0.00 | 0.00 | 87 | 1009.4 |
| 20260502064523 | 10 | 360 | 0.0 | 3.2 | 0.00 | 0.00 | 0.00 | 87 | 1009.6 |
| 20260502064336 | 10 | 261 | 0.0 | 0.0 | 0.00 | 0.00 | 0.00 | 87 | 1009.5 |
| 20260502064235 | 10 | 260 | 0.0 | 0.0 | 0.00 | 0.00 | 0.00 | 87 | 1009.5 |
| 20260502064135 | 10 | 0 | 0.0 | 0.0 | 0.00 | 0.00 | 0.00 | 87 | 1009.4 |
| 20260502064035 | 10 | 249 | 0.0 | 0.0 | 0.00 | 0.00 | 0.00 | 87 | 1009.4 |
| 20260502064022 | 10 | 250 | 0.0 | 0.0 | 0.00 | 0.00 | 0.00 | 87 | 1009.5 |
| 20260502063934 | 10 | 250 | 0.0 | 0.0 | 0.00 | 0.00 | 0.00 | 87 | 1009.4 |
| 20260502063834 | 10 | 183 | 0.0 | 0.0 | 0.00 | 0.00 | 0.00 | 87 | 1009.4 |
| 20260502063755 | 10 | 183 | 0.0 | 0.0 | 0.00 | 0.00 | 0.00 | 87 | 1009.4 |
| 20260502063641 | 10 | 183 | 0.0 | 0.0 | 0.00 | 0.00 | 0.00 | 87 | 1009.4 |
| 20260502063537 | 10 | 182 | 0.0 | 0.0 | 0.00 | 0.00 | 0.00 | 87 | 1009.5 |
| 20260502063459 | 10 | 182 | 0.0 | 0.0 | 0.00 | 0.00 | 0.00 | 86 | 1009.4 |
| 20260502063345 | 10 | 182 | 0.0 | 0.0 | 0.00 | 0.00 | 0.00 | 86 | 1009.5 |
| 20260502063336 | 10 | 182 | 0.0 | 0.0 | 0.00 | 0.00 | 0.00 | 86 | 1009.5 |
| 20260502063131 | 10 | 182 | 0.0 | 0.0 | 0.00 | 0.00 | 0.00 | 86 | 1009.5 |
| 20260502063031 | 10 | 182 | 0.0 | 0.0 | 0.00 | 0.00 | 0.00 | 86 | 1009.4 |
| 20260502063022 | 10 | 182 | 0.0 | 0.0 | 0.00 | 0.00 | 0.00 | 86 | 1009.5 |
| 20260502063017 | 10 | 182 | 0.0 | 0.0 | 0.00 | 0.00 | 0.00 | 85 | 1009.5 |
| 20260502063011 | 10 | 182 | 0.0 | 0.0 | 0.00 | 0.00 | 0.00 | 85 | 1009.5 |
| 20260502063006 | 10 | 182 | 0.0 | 0.0 | 0.00 | 0.00 | 0.00 | 86 | 1009.4 |
| 20260502062730 | 10 | 0 | 0.0 | 0.0 | 0.00 | 0.00 | 0.00 | 85 | 1009.5 |
| 20260502062627 | 10 | 182 | 0.0 | 0.0 | 0.00 | 0.00 | 0.00 | 85 | 1009.5 |
| 20260502062527 | 10 | 182 | 0.0 | 0.0 | 0.00 | 0.00 | 0.00 | 85 | 1009.5 |
| 20260502062523 | 10 | 182 | 0.0 | 0.0 | 0.00 | 0.00 | 0.00 | 85 | 1009.6 |
| 20260502062452 | 10 | 182 | 0.0 | 0.0 | 0.00 | 0.00 | 0.00 | 85 | 1009.5 |
| 20260502062339 | 10 | 182 | 0.0 | 0.0 | 0.00 | 0.00 | 0.00 | 85 | 1009.5 |
| 20260502062330 | 10 | 182 | 0.0 | 0.0 | 0.00 | 0.00 | 0.00 | 85 | 1009.5 |
| 20260502062136 | 10 | 182 | 0.0 | 0.0 | 0.00 | 0.00 | 0.00 | 85 | 1009.5 |
| 20260502062132 | 10 | 182 | 0.0 | 0.0 | 0.00 | 0.00 | 0.00 | 85 | 1009.5 |
| 20260502062022 | 10 | 182 | 0.0 | 0.0 | 0.00 | 0.00 | 0.00 | 85 | 1009.5 |
| 20260502061923 | 10 | 182 | 0.0 | 0.0 | 0.00 | 0.00 | 0.00 | 85 | 1009.4 |
| 20260502061823 | 10 | 182 | 0.0 | 0.0 | 0.00 | 0.00 | 0.00 | 85 | 1009.4 |
| 20260502061745 | 10 | 182 | 0.0 | 0.0 | 0.00 | 0.00 | 0.00 | 85 | 1009.4 |
| 20260502061723 | 10 | 182 | 0.0 | 0.0 | 0.00 | 0.00 | 0.00 | 84 | 1009.4 |
| 20260502061622 | 10 | 182 | 0.0 | 0.0 | 0.00 | 0.00 | 0.00 | 84 | 1009.4 |
| 20260502061552 | 10 | 182 | 0.0 | 0.0 | 0.00 | 0.00 | 0.00 | 84 | 1009.4 |
| 20260502061522 | 10 | 182 | 0.0 | 0.0 | 0.00 | 0.00 | 0.00 | 84 | 1009.5 |
| 20260502061452 | 10 | 182 | 0.0 | 0.0 | 0.00 | 0.00 | 0.00 | 84 | 1009.4 |
| 20260502061320 | 10 | 274 | 0.0 | 0.0 | 0.00 | 0.00 | 0.00 | 84 | 1009.4 |
| 20260502061219 | 10 | 274 | 0.0 | 0.0 | 0.00 | 0.00 | 0.00 | 84 | 1009.4 |
| 20260502061119 | 10 | 274 | 0.0 | 0.0 | 0.00 | 0.00 | 0.00 | 84 | 1009.4 |
| 20260502061022 | 10 | 274 | 0.0 | 0.0 | 0.00 | 0.00 | 0.00 | 84 | 1009.5 |
| 20260502061018 | 10 | 274 | 0.0 | 0.0 | 0.00 | 0.00 | 0.00 | 84 | 1009.4 |
| 20260502060917 | 10 | 274 | 0.0 | 0.0 | 0.00 | 0.00 | 0.00 | 84 | 1009.4 |
| 20260502060817 | 10 | 274 | 0.0 | 0.0 | 0.00 | 0.00 | 0.00 | 84 | 1009.4 |
| 20260502060745 | 10 | 274 | 0.0 | 0.0 | 0.00 | 0.00 | 0.00 | 84 | 1009.4 |
| 20260502060716 | 10 | 274 | 0.0 | 0.0 | 0.00 | 0.00 | 0.00 | 84 | 1009.4 |
| 20260502060616 | 10 | 274 | 0.0 | 0.0 | 0.00 | 0.00 | 0.00 | 84 | 1009.3 |
| 20260502060541 | 10 | 274 | 0.0 | 0.0 | 0.00 | 0.00 | 0.00 | 84 | 1009.3 |
| 20260502060537 | 10 | 274 | 0.0 | 0.0 | 0.00 | 0.00 | 0.00 | 85 | 1009.3 |
| 20260502060533 | 10 | 274 | 0.0 | 0.0 | 0.00 | 0.00 | 0.00 | 84 | 1009.3 |
| 20260502060521 | 10 | 274 | 0.0 | 0.0 | 0.00 | 0.00 | 0.00 | 84 | 1009.5 |
| 20260502060215 | 10 | 274 | 0.0 | 0.0 | 0.00 | 0.00 | 0.00 | 85 | 1009.3 |
| 20260502060115 | 10 | 274 | 0.0 | 0.0 | 0.00 | 0.00 | 0.00 | 85 | 1009.2 |
| 20260502060021 | 10 | 274 | 0.0 | 0.0 | 0.00 | 0.00 | 0.00 | 84 | 1009.5 |
| 20260502060014 | 10 | 274 | 0.0 | 0.0 | 0.00 | 0.00 | 0.00 | 84 | 1009.3 |
| 20260502055942 | 10 | 274 | 0.0 | 0.0 | 0.00 | 0.00 | 0.00 | 84 | 1009.3 |
| 20260502055829 | 10 | 274 | 0.0 | 0.0 | 0.00 | 0.00 | 0.00 | 84 | 1009.3 |
| 20260502055821 | 10 | 274 | 0.0 | 0.0 | 0.00 | 0.00 | 0.00 | 84 | 1009.3 |
| 20260502055614 | 10 | 274 | 0.0 | 0.0 | 0.00 | 0.00 | 0.00 | 84 | 1009.4 |
| 20260502055552 | 10 | 274 | 0.0 | 0.0 | 0.00 | 0.00 | 0.00 | 84 | 1009.5 |
| 20260502055524 | 10 | 274 | 0.0 | 0.0 | 0.00 | 0.00 | 0.00 | 84 | 1009.5 |
| 20260502055520 | 10 | 274 | 0.0 | 0.0 | 0.00 | 0.00 | 0.00 | 84 | 1009.4 |
| 20260502055310 | 10 | 274 | 0.0 | 0.0 | 0.00 | 0.00 | 0.00 | 84 | 1009.5 |
| 20260502055222 | 10 | 274 | 0.0 | 0.0 | 0.00 | 0.00 | 0.00 | 84 | 1009.5 |
| 20260502055218 | 10 | 274 | 0.0 | 0.0 | 0.00 | 0.00 | 0.00 | 84 | 1009.5 |
| 20260502055021 | 10 | 274 | 0.0 | 0.0 | 0.00 | 0.00 | 0.00 | 84 | 1009.6 |
| 20260502055008 | 10 | 274 | 0.0 | 0.0 | 0.00 | 0.00 | 0.00 | 84 | 1009.5 |
| 20260502054908 | 10 | 274 | 0.0 | 0.0 | 0.00 | 0.00 | 0.00 | 83 | 1009.5 |
| 20260502054807 | 10 | 274 | 0.0 | 0.0 | 0.00 | 0.00 | 0.00 | 83 | 1009.5 |
| 20260502054741 | 10 | 274 | 0.0 | 0.0 | 0.00 | 0.00 | 0.00 | 83 | 1009.5 |
| 20260502054705 | 10 | 274 | 0.0 | 0.0 | 0.00 | 0.00 | 0.00 | 83 | 1009.5 |
| 20260502054605 | 10 | 274 | 0.0 | 0.0 | 0.00 | 0.00 | 0.00 | 83 | 1009.5 |
| 20260502054522 | 10 | 274 | 0.0 | 0.0 | 0.00 | 0.00 | 0.00 | 83 | 1009.6 |
| 20260502054506 | 10 | 274 | 0.0 | 0.0 | 0.00 | 0.00 | 0.00 | 83 | 1009.5 |
| 20260502054405 | 10 | 274 | 0.0 | 0.0 | 0.00 | 0.00 | 0.00 | 83 | 1009.5 |
| 20260502054322 | 10 | 274 | 0.0 | 0.0 | 0.00 | 0.00 | 0.00 | 82 | 1009.5 |
| 20260502054318 | 10 | 274 | 0.0 | 0.0 | 0.00 | 0.00 | 0.00 | 83 | 1009.5 |
| 20260502054310 | 10 | 274 | 0.0 | 0.0 | 0.00 | 0.00 | 0.00 | 83 | 1009.5 |
| 20260502054103 | 10 | 274 | 0.0 | 0.0 | 0.00 | 0.00 | 0.00 | 82 | 1009.5 |
| 20260502054022 | 10 | 274 | 0.0 | 0.0 | 0.00 | 0.00 | 0.00 | 82 | 1009.7 |
| 20260502054003 | 10 | 0 | 0.0 | 0.0 | 0.00 | 0.00 | 0.00 | 82 | 1009.6 |
| 20260502053915 | 10 | 274 | 0.0 | 0.0 | 0.00 | 0.00 | 0.00 | 81 | 1009.6 |
| 20260502053911 | 10 | 274 | 0.0 | 0.0 | 0.00 | 0.00 | 0.00 | 81 | 1009.6 |
| 20260502053739 | 10 | 0 | 0.0 | 0.0 | 0.00 | 0.00 | 0.00 | 81 | 1009.6 |
| 20260502053702 | 10 | 274 | 0.0 | 0.0 | 0.00 | 0.00 | 0.00 | 81 | 1009.7 |
| 20260502053601 | 10 | 274 | 0.0 | 0.0 | 0.00 | 0.00 | 0.00 | 81 | 1009.7 |
| 20260502053521 | 10 | 274 | 0.0 | 0.0 | 0.00 | 0.00 | 0.00 | 81 | 1009.8 |
| 20260502053504 | 10 | 274 | 0.0 | 0.0 | 0.00 | 0.00 | 0.00 | 81 | 1009.7 |
| 20260502053500 | 10 | 274 | 0.0 | 0.0 | 0.00 | 0.00 | 0.00 | 81 | 1009.7 |
| 20260502053400 | 10 | 273 | 0.0 | 0.0 | 0.00 | 0.00 | 0.00 | 81 | 1009.7 |
| 20260502053347 | 10 | 273 | 0.0 | 0.0 | 0.00 | 0.00 | 0.00 | 81 | 1009.7 |
| 20260502053158 | 10 | 274 | 0.0 | 0.0 | 0.00 | 0.00 | 0.00 | 81 | 1009.7 |
| 20260502053058 | 10 | 274 | 0.0 | 0.0 | 0.00 | 0.00 | 0.00 | 80 | 1009.7 |
| 20260502053023 | 10 | 274 | 0.0 | 0.0 | 0.00 | 0.00 | 0.00 | 80 | 1009.8 |
| 20260502052958 | 10 | 274 | 0.0 | 0.0 | 0.00 | 0.00 | 0.00 | 80 | 1009.7 |
| 20260502052858 | 10 | 274 | 0.0 | 0.0 | 0.00 | 0.00 | 0.00 | 80 | 1009.7 |
| 20260502052738 | 10 | 274 | 0.0 | 0.0 | 0.00 | 0.00 | 0.00 | 80 | 1009.7 |
| 20260502052656 | 10 | 274 | 0.0 | 0.0 | 0.00 | 0.00 | 0.00 | 80 | 1009.8 |
| 20260502052556 | 10 | 274 | 0.0 | 0.0 | 0.00 | 0.00 | 0.00 | 80 | 1009.7 |
| 20260502052522 | 11 | 274 | 0.0 | 0.0 | 0.00 | 0.00 | 0.00 | 80 | 1009.8 |
| 20260502052455 | 10 | 274 | 0.0 | 0.0 | 0.00 | 0.00 | 0.00 | 80 | 1009.7 |
| 20260502052352 | 11 | 274 | 0.0 | 0.0 | 0.00 | 0.00 | 0.00 | 80 | 1009.8 |
| 20260502052236 | 11 | 274 | 0.0 | 0.0 | 0.00 | 0.00 | 0.00 | 80 | 1009.7 |
| 20260502052152 | 11 | 274 | 0.0 | 0.0 | 0.00 | 0.00 | 0.00 | 80 | 1009.8 |
| 20260502052050 | 11 | 274 | 0.0 | 0.0 | 0.00 | 0.00 | 0.00 | 80 | 1009.8 |
| 20260502052022 | 11 | 273 | 0.0 | 0.0 | 0.00 | 0.00 | 0.00 | 80 | 1009.9 |
| 20260502051950 | 11 | 273 | 0.0 | 0.0 | 0.00 | 0.00 | 0.00 | 80 | 1009.8 |
| 20260502051850 | 11 | 274 | 0.0 | 0.0 | 0.00 | 0.00 | 0.00 | 79 | 1009.9 |
| 20260502051750 | 11 | 0 | 0.0 | 0.0 | 0.00 | 0.00 | 0.00 | 79 | 1009.9 |
| 20260502051736 | 11 | 273 | 0.0 | 0.0 | 0.00 | 0.00 | 0.00 | 79 | 1009.9 |
| 20260502051717 | 11 | 274 | 0.0 | 0.0 | 0.00 | 0.00 | 0.00 | 78 | 1009.9 |
| 20260502051713 | 11 | 274 | 0.0 | 0.0 | 0.00 | 0.00 | 0.00 | 78 | 1009.9 |
| 20260502051707 | 11 | 274 | 0.0 | 0.0 | 0.00 | 0.00 | 0.00 | 79 | 1009.9 |
| 20260502051521 | 11 | 274 | 0.0 | 0.0 | 0.00 | 0.00 | 0.00 | 78 | 1010.0 |
| 20260502051401 | 11 | 274 | 0.0 | 0.0 | 0.00 | 0.00 | 0.00 | 78 | 1009.8 |
| 20260502051356 | 11 | 0 | 0.0 | 0.0 | 0.00 | 0.00 | 0.00 | 78 | 1009.9 |
| 20260502051234 | 11 | 274 | 0.0 | 0.0 | 0.00 | 0.00 | 0.00 | 78 | 1009.8 |
| 20260502051147 | 11 | 273 | 0.0 | 0.0 | 0.00 | 0.00 | 0.00 | 78 | 1009.8 |
| 20260502051046 | 11 | 0 | 0.0 | 0.0 | 0.00 | 0.00 | 0.00 | 77 | 1009.7 |
| 20260502051022 | 11 | 274 | 0.0 | 0.0 | 0.00 | 0.00 | 0.00 | 77 | 1009.9 |
| 20260502051010 | 11 | 274 | 0.0 | 0.0 | 0.00 | 0.00 | 0.00 | 78 | 1009.7 |
| 20260502051004 | 11 | 274 | 0.0 | 0.0 | 0.00 | 0.00 | 0.00 | 78 | 1009.7 |
| 20260502051000 | 11 | 273 | 0.0 | 0.0 | 0.00 | 0.00 | 0.00 | 77 | 1009.8 |
| 20260502050842 | 11 | 274 | 0.0 | 0.0 | 0.00 | 0.00 | 0.00 | 78 | 1009.7 |
| 20260502050645 | 11 | 274 | 0.0 | 0.0 | 0.00 | 0.00 | 0.00 | 78 | 1009.6 |
| 20260502050544 | 11 | 274 | 0.0 | 0.0 | 0.00 | 0.00 | 0.00 | 78 | 1009.6 |
| 20260502050521 | 11 | 274 | 0.0 | 0.0 | 0.00 | 0.00 | 0.00 | 78 | 1009.8 |
| 20260502050444 | 11 | 273 | 0.0 | 0.0 | 0.00 | 0.00 | 0.00 | 78 | 1009.7 |
| 20260502050343 | 11 | 274 | 0.0 | 0.0 | 0.00 | 0.00 | 0.00 | 77 | 1009.7 |
| 20260502050232 | 11 | 275 | 0.0 | 0.0 | 0.00 | 0.00 | 0.00 | 77 | 1009.6 |
| 20260502050142 | 11 | 274 | 0.0 | 0.0 | 0.00 | 0.00 | 0.00 | 77 | 1009.6 |
| 20260502050041 | 11 | 275 | 0.0 | 0.0 | 0.00 | 0.00 | 0.00 | 77 | 1009.7 |
| 20260502050022 | 11 | 275 | 0.0 | 0.0 | 0.00 | 0.00 | 0.00 | 78 | 1009.7 |
| 20260502045940 | 11 | 274 | 0.0 | 0.0 | 0.00 | 0.00 | 0.00 | 77 | 1009.7 |
| 20260502045840 | 11 | 274 | 0.0 | 0.0 | 0.00 | 0.00 | 0.00 | 77 | 1009.7 |
| 20260502045732 | 11 | 275 | 0.0 | 0.0 | 0.00 | 0.00 | 0.00 | 77 | 1009.7 |
| 20260502045639 | 11 | 274 | 0.0 | 0.0 | 0.00 | 0.00 | 0.00 | 77 | 1009.7 |
| 20260502045552 | 11 | 275 | 0.0 | 0.0 | 0.00 | 0.00 | 0.00 | 77 | 1009.6 |
| 20260502045537 | 11 | 0 | 0.0 | 0.0 | 0.00 | 0.00 | 0.00 | 77 | 1009.6 |
| 20260502045436 | 11 | 275 | 0.0 | 0.0 | 0.00 | 0.00 | 0.00 | 77 | 1009.6 |
| 20260502045334 | 11 | 274 | 0.0 | 0.0 | 0.00 | 0.00 | 0.00 | 77 | 1009.6 |
| 20260502045230 | 11 | 274 | 0.0 | 0.0 | 0.00 | 0.00 | 0.00 | 76 | 1009.5 |
| 20260502045147 | 11 | 274 | 0.0 | 0.0 | 0.00 | 0.00 | 0.00 | 76 | 1009.6 |
| 20260502045143 | 11 | 274 | 0.0 | 0.0 | 0.00 | 0.00 | 0.00 | 76 | 1009.6 |
| 20260502045022 | 11 | 274 | 0.0 | 0.0 | 0.00 | 0.00 | 0.00 | 76 | 1009.7 |
| 20260502044933 | 11 | 275 | 0.0 | 0.0 | 0.00 | 0.00 | 0.00 | 76 | 1009.7 |
| 20260502044849 | 11 | 274 | 0.0 | 0.0 | 0.00 | 0.00 | 0.00 | 76 | 1009.7 |
| 20260502044844 | 11 | 274 | 0.0 | 0.0 | 0.00 | 0.00 | 0.00 | 76 | 1009.7 |
| 20260502044729 | 11 | 274 | 0.0 | 0.0 | 0.00 | 0.00 | 0.00 | 76 | 1009.7 |
| 20260502044632 | 11 | 274 | 0.0 | 0.0 | 0.00 | 0.00 | 0.00 | 75 | 1009.7 |
| 20260502044531 | 11 | 274 | 0.0 | 0.0 | 0.00 | 0.00 | 0.00 | 75 | 1009.7 |
| 20260502044522 | 11 | 274 | 0.0 | 0.0 | 0.00 | 0.00 | 0.00 | 75 | 1009.8 |
| 20260502044430 | 11 | 275 | 0.0 | 0.0 | 0.00 | 0.00 | 0.00 | 75 | 1009.8 |
| 20260502044330 | 11 | 275 | 0.0 | 0.0 | 0.00 | 0.00 | 0.00 | 75 | 1009.8 |
| 20260502044230 | 11 | 274 | 0.0 | 0.0 | 0.00 | 0.00 | 0.00 | 75 | 1009.7 |
| 20260502044130 | 11 | 274 | 0.0 | 0.0 | 0.00 | 0.00 | 0.00 | 76 | 1009.8 |
| 20260502044028 | 11 | 274 | 0.0 | 0.0 | 0.00 | 0.00 | 0.00 | 76 | 1009.7 |
| 20260502044021 | 11 | 274 | 0.0 | 0.0 | 0.00 | 0.00 | 0.00 | 76 | 1009.8 |
| 20260502043952 | 11 | 274 | 0.0 | 0.0 | 0.00 | 0.00 | 0.00 | 75 | 1009.9 |
| 20260502043928 | 11 | 274 | 0.0 | 0.0 | 0.00 | 0.00 | 0.00 | 76 | 1009.8 |
| 20260502043842 | 11 | 274 | 0.0 | 0.0 | 0.00 | 0.00 | 0.00 | 76 | 1009.8 |
| 20260502043727 | 11 | 275 | 0.0 | 0.0 | 0.00 | 0.00 | 0.00 | 75 | 1009.9 |
| 20260502043626 | 11 | 274 | 0.0 | 0.0 | 0.00 | 0.00 | 0.00 | 75 | 1009.8 |
| 20260502043552 | 11 | 275 | 0.0 | 0.0 | 0.00 | 0.00 | 0.00 | 74 | 1009.9 |
| 20260502043548 | 11 | 275 | 0.0 | 0.0 | 0.00 | 0.00 | 0.00 | 74 | 1009.8 |
| 20260502043543 | 11 | 274 | 0.0 | 0.0 | 0.00 | 0.00 | 0.00 | 74 | 1009.8 |
| 20260502043522 | 11 | 275 | 0.0 | 0.0 | 0.00 | 0.00 | 0.00 | 74 | 1009.9 |
| 20260502043224 | 11 | 275 | 0.0 | 0.0 | 0.00 | 0.00 | 0.00 | 74 | 1009.8 |
| 20260502043136 | 11 | 275 | 0.0 | 0.0 | 0.00 | 0.00 | 0.00 | 74 | 1009.8 |
| 20260502043132 | 11 | 275 | 0.0 | 0.0 | 0.00 | 0.00 | 0.00 | 74 | 1009.8 |
| 20260502043023 | 11 | 274 | 0.0 | 0.0 | 0.00 | 0.00 | 0.00 | 74 | 1009.7 |
| 20260502042922 | 11 | 274 | 0.0 | 0.0 | 0.00 | 0.00 | 0.00 | 73 | 1009.7 |
| 20260502042821 | 11 | 275 | 0.0 | 0.0 | 0.00 | 0.00 | 0.00 | 73 | 1009.6 |
| 20260502042721 | 11 | 275 | 0.0 | 0.0 | 0.00 | 0.00 | 0.00 | 73 | 1009.6 |
| 20260502042621 | 11 | 274 | 0.0 | 0.0 | 0.00 | 0.00 | 0.00 | 72 | 1009.6 |
| 20260502042605 | 11 | 274 | 0.0 | 0.0 | 0.00 | 0.00 | 0.00 | 72 | 1009.6 |
| 20260502042601 | 11 | 274 | 0.0 | 0.0 | 0.00 | 0.00 | 0.00 | 72 | 1009.6 |
| 20260502042557 | 11 | 274 | 0.0 | 0.0 | 0.00 | 0.00 | 0.00 | 72 | 1009.6 |
| 20260502042552 | 11 | 274 | 0.0 | 0.0 | 0.00 | 0.00 | 0.00 | 72 | 1009.6 |
| 20260502042522 | 11 | 274 | 0.0 | 0.0 | 0.00 | 0.00 | 0.00 | 72 | 1009.6 |
| 20260502042219 | 11 | 274 | 0.0 | 0.0 | 0.00 | 0.00 | 0.00 | 72 | 1009.6 |
| 20260502042118 | 11 | 0 | 0.0 | 0.0 | 0.00 | 0.00 | 0.00 | 71 | 1009.6 |
| 20260502042022 | 11 | 274 | 0.0 | 0.0 | 0.00 | 0.00 | 0.00 | 71 | 1009.6 |
| 20260502042017 | 11 | 275 | 0.0 | 0.0 | 0.00 | 0.00 | 0.00 | 71 | 1009.6 |
| 20260502041917 | 11 | 274 | 0.0 | 0.0 | 0.00 | 0.00 | 0.00 | 71 | 1009.6 |
| 20260502041857 | 11 | 275 | 0.0 | 0.0 | 0.00 | 0.00 | 0.00 | 71 | 1009.6 |
| 20260502041852 | 11 | 274 | 0.0 | 0.0 | 0.00 | 0.00 | 0.00 | 71 | 1009.6 |
| 20260502041733 | 11 | 274 | 0.0 | 0.0 | 0.00 | 0.00 | 0.00 | 71 | 1009.6 |
| 20260502041537 | 11 | 274 | 0.0 | 0.0 | 0.00 | 0.00 | 0.00 | 72 | 1009.5 |
| 20260502041413 | 11 | 274 | 0.0 | 0.0 | 0.00 | 0.00 | 0.00 | 72 | 1009.5 |
| 20260502041312 | 11 | 275 | 0.0 | 0.0 | 0.00 | 0.00 | 0.00 | 72 | 1009.6 |
| 20260502041244 | 11 | 274 | 0.0 | 0.0 | 0.00 | 0.00 | 0.00 | 71 | 1009.6 |
| 20260502041240 | 11 | 0 | 0.0 | 0.0 | 0.00 | 0.00 | 0.00 | 71 | 1009.6 |
| 20260502041229 | 11 | 275 | 0.0 | 0.0 | 0.00 | 0.00 | 0.00 | 71 | 1009.5 |
| 20260502041021 | 11 | 274 | 0.0 | 0.0 | 0.00 | 0.00 | 0.00 | 71 | 1009.6 |
| 20260502040911 | 11 | 274 | 0.0 | 0.0 | 0.00 | 0.00 | 0.00 | 71 | 1009.5 |
| 20260502040810 | 11 | 274 | 0.0 | 0.0 | 0.00 | 0.00 | 0.00 | 71 | 1009.5 |
| 20260502040710 | 11 | 274 | 0.0 | 0.0 | 0.00 | 0.00 | 0.00 | 70 | 1009.5 |
| 20260502040608 | 11 | 281 | 0.0 | 3.2 | 0.00 | 0.00 | 0.00 | 70 | 1009.4 |
| 20260502040537 | 11 | 281 | 0.0 | 3.2 | 0.00 | 0.00 | 0.00 | 70 | 1009.4 |
| 20260502040508 | 11 | 281 | 0.0 | 3.2 | 0.00 | 0.00 | 0.00 | 70 | 1009.4 |
| 20260502040408 | 11 | 281 | 0.0 | 3.2 | 0.00 | 0.00 | 0.00 | 71 | 1009.4 |
| 20260502040306 | 11 | 281 | 0.0 | 3.2 | 0.00 | 0.00 | 0.00 | 71 | 1009.4 |
| 20260502040206 | 11 | 281 | 0.0 | 3.2 | 0.00 | 0.00 | 0.00 | 71 | 1009.4 |
| 20260502040105 | 12 | 281 | 0.0 | 3.2 | 0.00 | 0.00 | 0.00 | 71 | 1009.4 |
| 20260502040022 | 12 | 281 | 0.0 | 3.2 | 0.00 | 0.00 | 0.00 | 71 | 1009.4 |
| 20260502040005 | 12 | 281 | 0.0 | 3.2 | 0.00 | 0.00 | 0.00 | 71 | 1009.4 |
| 20260502035904 | 12 | 281 | 0.0 | 3.2 | 0.00 | 0.00 | 0.00 | 71 | 1009.4 |
| 20260502035802 | 12 | 281 | 0.0 | 3.2 | 0.00 | 0.00 | 0.00 | 70 | 1009.4 |
| 20260502035719 | 12 | 281 | 0.0 | 3.2 | 0.00 | 0.00 | 0.00 | 70 | 1009.4 |
| 20260502035702 | 12 | 281 | 0.0 | 3.2 | 0.00 | 0.00 | 0.00 | 70 | 1009.4 |
| 20260502035602 | 12 | 158 | 0.0 | 0.0 | 0.00 | 0.00 | 0.00 | 70 | 1009.4 |
| 20260502035522 | 12 | 158 | 0.0 | 0.0 | 0.00 | 0.00 | 0.00 | 69 | 1009.4 |
| 20260502035501 | 12 | 158 | 0.0 | 0.0 | 0.00 | 0.00 | 0.00 | 69 | 1009.4 |
| 20260502035401 | 12 | 158 | 0.0 | 0.0 | 0.00 | 0.00 | 0.00 | 69 | 1009.3 |
| 20260502035258 | 12 | 158 | 0.0 | 0.0 | 0.00 | 0.00 | 0.00 | 69 | 1009.3 |
| 20260502035217 | 12 | 158 | 0.0 | 0.0 | 0.00 | 0.00 | 0.00 | 69 | 1009.3 |
| 20260502035159 | 12 | 158 | 0.0 | 0.0 | 0.00 | 0.00 | 0.00 | 69 | 1009.3 |
| 20260502035058 | 12 | 158 | 0.0 | 0.0 | 0.00 | 0.00 | 0.00 | 69 | 1009.3 |
| 20260502035022 | 12 | 158 | 0.0 | 0.0 | 0.00 | 0.00 | 0.00 | 69 | 1009.3 |
| 20260502034958 | 12 | 159 | 0.0 | 0.0 | 0.00 | 0.00 | 0.00 | 69 | 1009.3 |
| 20260502034911 | 12 | 158 | 0.0 | 0.0 | 0.00 | 0.00 | 0.00 | 68 | 1009.3 |
| 20260502034906 | 12 | 158 | 0.0 | 0.0 | 0.00 | 0.00 | 0.00 | 69 | 1009.3 |
| 20260502034716 | 12 | 157 | 0.0 | 1.6 | 0.00 | 0.00 | 0.00 | 68 | 1009.3 |
| 20260502034710 | 12 | 176 | 0.0 | 1.6 | 0.00 | 0.00 | 0.00 | 68 | 1009.1 |
| 20260502034705 | 12 | 157 | 0.0 | 1.6 | 0.00 | 0.00 | 0.00 | 68 | 1009.2 |
| 20260502034521 | 12 | 175 | 0.0 | 1.6 | 0.00 | 0.00 | 0.00 | 67 | 1009.1 |
| 20260502034456 | 12 | 175 | 0.0 | 1.6 | 0.00 | 0.00 | 0.00 | 67 | 1009.1 |
| 20260502034441 | 12 | 164 | 0.0 | 1.6 | 0.00 | 0.00 | 0.00 | 67 | 1009.1 |
| 20260502034354 | 12 | 175 | 0.0 | 1.6 | 0.00 | 0.00 | 0.00 | 67 | 1009.1 |
| 20260502034326 | 12 | 163 | 0.0 | 1.6 | 0.00 | 0.00 | 0.00 | 67 | 1009.1 |
| 20260502034206 | 12 | 163 | 0.0 | 1.6 | 0.00 | 0.00 | 0.00 | 67 | 1009.0 |
| 20260502034202 | 12 | 164 | 0.0 | 1.6 | 0.00 | 0.00 | 0.00 | 67 | 1009.1 |
| 20260502034022 | 12 | 162 | 0.0 | 1.6 | 0.00 | 0.00 | 0.00 | 67 | 1009.0 |
| 20260502033952 | 12 | 162 | 0.0 | 1.6 | 0.00 | 0.00 | 0.00 | 67 | 1009.0 |
| 20260502033852 | 12 | 162 | 0.0 | 1.6 | 0.00 | 0.00 | 0.00 | 68 | 1009.0 |
| 20260502033752 | 12 | 234 | 0.0 | 1.6 | 0.00 | 0.00 | 0.00 | 67 | 1009.0 |
| 20260502033715 | 12 | 234 | 0.0 | 0.0 | 0.00 | 0.00 | 0.00 | 67 | 1008.9 |
| 20260502033650 | 12 | 234 | 0.0 | 0.0 | 0.00 | 0.00 | 0.00 | 67 | 1008.9 |
| 20260502033602 | 12 | 234 | 0.0 | 0.0 | 0.00 | 0.00 | 0.00 | 67 | 1009.0 |
| 20260502033558 | 12 | 234 | 0.0 | 0.0 | 0.00 | 0.00 | 0.00 | 67 | 1008.9 |
| 20260502033552 | 12 | 234 | 0.0 | 0.0 | 0.00 | 0.00 | 0.00 | 67 | 1009.0 |
| 20260502033347 | 12 | 234 | 0.0 | 3.2 | 0.00 | 0.00 | 0.00 | 67 | 1009.0 |
| 20260502033247 | 12 | 0 | 0.0 | 6.4 | 0.00 | 0.00 | 0.00 | 66 | 1009.0 |
| 20260502033213 | 12 | 234 | 0.0 | 6.4 | 0.00 | 0.00 | 0.00 | 67 | 1009.1 |
| 20260502033146 | 12 | 234 | 0.0 | 6.4 | 0.00 | 0.00 | 0.00 | 67 | 1009.1 |
| 20260502033047 | 12 | 234 | 0.0 | 6.4 | 0.00 | 0.00 | 0.00 | 66 | 1009.1 |
| 20260502033022 | 12 | 234 | 0.0 | 6.4 | 0.00 | 0.00 | 0.00 | 66 | 1009.1 |
| 20260502032947 | 12 | 234 | 0.0 | 6.4 | 0.00 | 0.00 | 0.00 | 66 | 1009.1 |
| 20260502032846 | 12 | 190 | 0.0 | 6.4 | 0.00 | 0.00 | 0.00 | 66 | 1009.1 |
| 20260502032746 | 12 | 190 | 0.0 | 6.4 | 0.00 | 0.00 | 0.00 | 66 | 1009.2 |
| 20260502032712 | 12 | 190 | 0.0 | 6.4 | 0.00 | 0.00 | 0.00 | 66 | 1009.2 |
| 20260502032643 | 12 | 190 | 0.0 | 6.4 | 0.00 | 0.00 | 0.00 | 66 | 1009.2 |
| 20260502032543 | 12 | 190 | 0.0 | 6.4 | 0.00 | 0.00 | 0.00 | 66 | 1009.3 |
| 20260502032522 | 12 | 190 | 0.0 | 6.4 | 0.00 | 0.00 | 0.00 | 66 | 1009.3 |
| 20260502032442 | 12 | 190 | 0.0 | 6.4 | 0.00 | 0.00 | 0.00 | 66 | 1009.3 |
| 20260502032341 | 12 | 188 | 0.0 | 6.4 | 0.00 | 0.00 | 0.00 | 66 | 1009.2 |
| 20260502032213 | 12 | 182 | 0.0 | 3.2 | 0.00 | 0.00 | 0.00 | 66 | 1009.2 |
| 20260502032205 | 12 | 181 | 0.0 | 11.3 | 0.00 | 0.00 | 0.00 | 66 | 1009.2 |
| 20260502032052 | 12 | 181 | 0.0 | 11.3 | 0.00 | 0.00 | 0.00 | 66 | 1009.2 |
| 20260502032022 | 12 | 181 | 0.0 | 8.0 | 0.00 | 0.00 | 0.00 | 66 | 1009.1 |
| 20260502031935 | 12 | 178 | 0.0 | 11.3 | 0.00 | 0.00 | 0.00 | 65 | 1009.1 |
| 20260502031839 | 12 | 178 | 0.0 | 11.3 | 0.00 | 0.00 | 0.00 | 65 | 1009.1 |
| 20260502031820 | 12 | 178 | 0.0 | 11.3 | 0.00 | 0.00 | 0.00 | 65 | 1009.1 |
| 20260502031635 | 12 | 171 | 0.0 | 11.3 | 0.00 | 0.00 | 0.00 | 65 | 1009.1 |
| 20260502031548 | 12 | 169 | 0.0 | 11.3 | 0.00 | 0.00 | 0.00 | 65 | 1009.1 |
| 20260502031544 | 12 | 0 | 0.0 | 11.3 | 0.00 | 0.00 | 0.00 | 65 | 1009.1 |
| 20260502031521 | 12 | 171 | 0.0 | 8.0 | 0.00 | 0.00 | 0.00 | 65 | 1009.1 |
| 20260502031334 | 12 | 183 | 0.0 | 11.3 | 0.00 | 0.00 | 0.00 | 65 | 1009.2 |
| 20260502031232 | 12 | 192 | 0.0 | 11.3 | 0.00 | 0.00 | 0.00 | 65 | 1009.1 |
| 20260502031211 | 12 | 144 | 0.0 | 11.3 | 0.00 | 0.00 | 0.00 | 65 | 1009.2 |
| 20260502031133 | 12 | 167 | 0.0 | 1.6 | 0.00 | 0.00 | 0.00 | 64 | 1009.2 |
| 20260502031032 | 12 | 167 | 0.0 | 1.6 | 0.00 | 0.00 | 0.00 | 64 | 1009.2 |
| 20260502031022 | 12 | 167 | 0.0 | 1.6 | 0.00 | 0.00 | 0.00 | 64 | 1009.2 |
| 20260502030934 | 12 | 167 | 0.0 | 1.6 | 0.00 | 0.00 | 0.00 | 64 | 1009.2 |
| 20260502030927 | 12 | 160 | 0.0 | 8.0 | 0.00 | 0.00 | 0.00 | 64 | 1009.2 |
| 20260502030831 | 12 | 166 | 0.0 | 1.6 | 0.00 | 0.00 | 0.00 | 64 | 1009.2 |
| 20260502030818 | 12 | 194 | 0.0 | 8.0 | 0.00 | 0.00 | 0.00 | 64 | 1009.2 |
| 20260502030630 | 12 | 186 | 0.0 | 8.0 | 0.00 | 0.00 | 0.00 | 63 | 1009.2 |
| 20260502030552 | 12 | 192 | 0.0 | 8.0 | 0.00 | 0.00 | 0.00 | 63 | 1009.1 |
| 20260502030530 | 12 | 181 | 0.0 | 8.0 | 0.00 | 0.00 | 0.00 | 63 | 1009.2 |
| 20260502030430 | 12 | 192 | 0.0 | 8.0 | 0.00 | 0.00 | 0.00 | 63 | 1009.1 |
| 20260502030342 | 12 | 155 | 0.0 | 8.0 | 0.00 | 0.00 | 0.00 | 63 | 1009.3 |
| 20260502030338 | 12 | 179 | 0.0 | 8.0 | 0.00 | 0.00 | 0.00 | 63 | 1009.2 |
| 20260502030211 | 12 | 165 | 0.0 | 8.0 | 0.00 | 0.00 | 0.00 | 63 | 1009.3 |
| 20260502030129 | 12 | 203 | 0.0 | 8.0 | 0.00 | 0.00 | 0.00 | 62 | 1009.3 |
| 20260502030027 | 12 | 160 | 0.0 | 8.0 | 0.00 | 0.00 | 0.00 | 62 | 1009.4 |
| 20260502030022 | 12 | 144 | 0.0 | 8.0 | 0.00 | 0.00 | 0.00 | 62 | 1009.4 |
| 20260502025927 | 12 | 156 | 0.0 | 8.0 | 0.00 | 0.00 | 0.00 | 62 | 1009.4 |
| 20260502025840 | 12 | 180 | 0.0 | 6.4 | 0.00 | 0.00 | 0.00 | 62 | 1009.3 |
| 20260502025836 | 12 | 175 | 0.0 | 8.0 | 0.00 | 0.00 | 0.00 | 62 | 1009.3 |
| 20260502025710 | 12 | 180 | 0.0 | 6.4 | 0.00 | 0.00 | 0.00 | 62 | 1009.2 |
| 20260502025626 | 12 | 182 | 0.0 | 6.4 | 0.00 | 0.00 | 0.00 | 62 | 1009.2 |
| 20260502025537 | 12 | 190 | 0.0 | 6.4 | 0.00 | 0.00 | 0.00 | 61 | 1009.1 |
| 20260502025526 | 12 | 190 | 0.0 | 6.4 | 0.00 | 0.00 | 0.00 | 61 | 1009.1 |
| 20260502025443 | 12 | 164 | 0.0 | 0.0 | 0.00 | 0.00 | 0.00 | 61 | 1009.2 |
| 20260502025439 | 12 | 161 | 0.0 | 0.0 | 0.00 | 0.00 | 0.00 | 61 | 1009.3 |
| 20260502025435 | 12 | 160 | 0.0 | 0.0 | 0.00 | 0.00 | 0.00 | 61 | 1009.1 |
| 20260502025316 | 12 | 180 | 0.0 | 0.0 | 0.00 | 0.00 | 0.00 | 61 | 1009.3 |
| 20260502025123 | 12 | 176 | 0.0 | 0.0 | 0.00 | 0.00 | 0.00 | 61 | 1009.3 |
| 20260502025040 | 12 | 157 | 0.0 | 0.0 | 0.00 | 0.00 | 0.00 | 61 | 1009.3 |
| 20260502025038 | 12 | 162 | 0.0 | 0.0 | 0.00 | 0.00 | 0.00 | 61 | 1009.3 |
| 20260502025036 | 12 | 180 | 0.0 | 0.0 | 0.00 | 0.00 | 0.00 | 60 | 1009.2 |
| 20260502025032 | 12 | 162 | 0.0 | 0.0 | 0.00 | 0.00 | 0.00 | 61 | 1009.3 |
| 20260502024847 | 12 | 180 | 0.0 | 0.0 | 0.00 | 0.00 | 0.00 | 60 | 1009.2 |
| 20260502024842 | 12 | 148 | 0.0 | 0.0 | 0.00 | 0.00 | 0.00 | 61 | 1009.3 |
| 20260502024833 | 12 | 180 | 0.0 | 0.0 | 0.00 | 0.00 | 0.00 | 60 | 1009.3 |
| 20260502024522 | 12 | 180 | 0.0 | 0.0 | 0.00 | 0.00 | 0.00 | 60 | 1009.3 |
| 20260502024518 | 12 | 180 | 0.0 | 0.0 | 0.00 | 0.00 | 0.00 | 60 | 1009.3 |
| 20260502024415 | 12 | 170 | 0.0 | 0.0 | 0.00 | 0.00 | 0.00 | 61 | 1009.3 |
| 20260502024315 | 12 | 169 | 0.0 | 0.0 | 0.00 | 0.00 | 0.00 | 61 | 1009.3 |
| 20260502024210 | 13 | 169 | 0.0 | 0.0 | 0.00 | 0.00 | 0.00 | 60 | 1009.4 |
| 20260502024115 | 13 | 169 | 0.0 | 0.0 | 0.00 | 0.00 | 0.00 | 60 | 1009.4 |
| 20260502024022 | 13 | 169 | 0.0 | 0.0 | 0.00 | 0.00 | 0.00 | 60 | 1009.5 |
| 20260502024015 | 13 | 169 | 0.0 | 0.0 | 0.00 | 0.00 | 0.00 | 60 | 1009.5 |
| 20260502023937 | 13 | 169 | 0.0 | 0.0 | 0.00 | 0.00 | 0.00 | 60 | 1009.5 |
| 20260502023931 | 13 | 169 | 0.0 | 0.0 | 0.00 | 0.00 | 0.00 | 60 | 1009.4 |
| 20260502023922 | 13 | 169 | 0.0 | 0.0 | 0.00 | 0.00 | 0.00 | 60 | 1009.5 |
| 20260502023613 | 13 | 169 | 0.0 | 0.0 | 0.00 | 0.00 | 0.00 | 59 | 1009.5 |
| 20260502023541 | 13 | 169 | 0.0 | 0.0 | 0.00 | 0.00 | 0.00 | 59 | 1009.5 |
| 20260502023537 | 13 | 169 | 0.0 | 0.0 | 0.00 | 0.00 | 0.00 | 59 | 1009.6 |
| 20260502023532 | 13 | 169 | 0.0 | 0.0 | 0.00 | 0.00 | 0.00 | 59 | 1009.5 |
| 20260502023522 | 13 | 169 | 0.0 | 0.0 | 0.00 | 0.00 | 0.00 | 59 | 1009.5 |
| 20260502023212 | 13 | 201 | 0.0 | 0.0 | 0.00 | 0.00 | 0.00 | 59 | 1009.6 |
| 20260502023206 | 13 | 0 | 0.0 | 0.0 | 0.00 | 0.00 | 0.00 | 59 | 1009.6 |
| 20260502023112 | 13 | 201 | 0.0 | 0.0 | 0.00 | 0.00 | 0.00 | 59 | 1009.6 |
| 20260502023024 | 13 | 190 | 0.0 | 0.0 | 0.00 | 0.00 | 0.00 | 59 | 1009.6 |
| 20260502023020 | 13 | 203 | 0.0 | 0.0 | 0.00 | 0.00 | 0.00 | 59 | 1009.6 |
| 20260502022810 | 13 | 163 | 0.0 | 1.6 | 0.00 | 0.00 | 0.00 | 58 | 1009.6 |
| 20260502022803 | 13 | 178 | 0.0 | 1.6 | 0.00 | 0.00 | 0.00 | 58 | 1009.5 |
| 20260502022759 | 13 | 178 | 0.0 | 1.6 | 0.00 | 0.00 | 0.00 | 58 | 1009.6 |
| 20260502022752 | 13 | 149 | 0.0 | 1.6 | 0.00 | 0.00 | 0.00 | 58 | 1009.6 |
| 20260502022745 | 13 | 172 | 0.0 | 1.6 | 0.00 | 0.00 | 0.00 | 58 | 1009.6 |
| 20260502022633 | 13 | 178 | 0.0 | 1.6 | 0.00 | 0.00 | 0.00 | 58 | 1009.6 |
| 20260502022522 | 13 | 178 | 0.0 | 1.6 | 0.00 | 0.00 | 0.00 | 58 | 1009.5 |
| 20260502022207 | 13 | 178 | 0.0 | 1.6 | 0.00 | 0.00 | 0.00 | 58 | 1009.5 |
| 20260502022105 | 13 | 171 | 0.0 | 1.6 | 0.00 | 0.00 | 0.00 | 58 | 1009.5 |
| 20260502022022 | 13 | 163 | 0.0 | 1.6 | 0.00 | 0.00 | 0.00 | 58 | 1009.5 |
| 20260502022005 | 13 | 163 | 0.0 | 1.6 | 0.00 | 0.00 | 0.00 | 58 | 1009.5 |
| 20260502021904 | 13 | 163 | 0.0 | 1.6 | 0.00 | 0.00 | 0.00 | 57 | 1009.5 |
| 20260502021836 | 13 | 163 | 0.0 | 1.6 | 0.00 | 0.00 | 0.00 | 57 | 1009.7 |
| 20260502021832 | 13 | 169 | 0.0 | 1.6 | 0.00 | 0.00 | 0.00 | 57 | 1009.7 |
| 20260502021826 | 13 | 153 | 0.0 | 1.6 | 0.00 | 0.00 | 0.00 | 58 | 1009.6 |
| 20260502021713 | 13 | 163 | 0.0 | 1.6 | 0.00 | 0.00 | 0.00 | 57 | 1009.7 |
| 20260502021522 | 13 | 182 | 0.0 | 0.0 | 0.00 | 0.00 | 0.00 | 57 | 1009.7 |
| 20260502021500 | 13 | 172 | 0.0 | 1.6 | 0.00 | 0.00 | 0.00 | 57 | 1009.7 |
| 20260502021414 | 13 | 0 | 0.0 | 1.6 | 0.00 | 0.00 | 0.00 | 57 | 1009.7 |
| 20260502021410 | 13 | 163 | 0.0 | 1.6 | 0.00 | 0.00 | 0.00 | 58 | 1009.7 |
| 20260502021205 | 13 | 130 | 0.0 | 1.6 | 0.00 | 0.00 | 0.00 | 57 | 1009.7 |
| 20260502021200 | 13 | 0 | 0.0 | 1.6 | 0.00 | 0.00 | 0.00 | 57 | 1009.7 |
| 20260502021059 | 13 | 198 | 0.0 | 1.6 | 0.00 | 0.00 | 0.00 | 58 | 1009.7 |
| 20260502021022 | 13 | 178 | 0.0 | 1.6 | 0.00 | 0.00 | 0.00 | 58 | 1009.6 |
| 20260502020959 | 13 | 178 | 0.0 | 1.6 | 0.00 | 0.00 | 0.00 | 58 | 1009.6 |
| 20260502020859 | 13 | 179 | 0.0 | 1.6 | 0.00 | 0.00 | 0.00 | 58 | 1009.6 |
| 20260502020757 | 13 | 172 | 0.0 | 4.8 | 0.00 | 0.00 | 0.00 | 58 | 1009.6 |
| 20260502020658 | 13 | 0 | 0.0 | 4.8 | 0.00 | 0.00 | 0.00 | 58 | 1009.6 |
| 20260502020557 | 13 | 132 | 0.0 | 4.8 | 0.00 | 0.00 | 0.00 | 58 | 1009.5 |
| 20260502020522 | 13 | 132 | 0.0 | 4.8 | 0.00 | 0.00 | 0.00 | 57 | 1009.5 |
| 20260502020456 | 13 | 132 | 0.0 | 4.8 | 0.00 | 0.00 | 0.00 | 57 | 1009.5 |
| 20260502020422 | 13 | 151 | 0.0 | 4.8 | 0.00 | 0.00 | 0.00 | 57 | 1009.5 |
| 20260502020309 | 13 | 160 | 0.0 | 4.8 | 0.00 | 0.00 | 0.00 | 58 | 1009.4 |
| 20260502020300 | 13 | 176 | 0.0 | 8.0 | 0.00 | 0.00 | 0.00 | 57 | 1009.4 |
| 20260502020054 | 13 | 176 | 0.0 | 8.0 | 0.00 | 0.00 | 0.00 | 58 | 1009.5 |
| 20260502020022 | 13 | 175 | 0.0 | 8.0 | 0.00 | 0.00 | 0.00 | 58 | 1009.5 |
| 20260502015954 | 13 | 188 | 0.0 | 8.0 | 0.00 | 0.00 | 0.00 | 58 | 1009.5 |
| 20260502015852 | 13 | 188 | 0.0 | 8.0 | 0.00 | 0.00 | 0.00 | 57 | 1009.4 |
| 20260502015752 | 13 | 194 | 0.0 | 8.0 | 0.00 | 0.00 | 0.00 | 57 | 1009.5 |
| 20260502015711 | 13 | 198 | 0.0 | 8.0 | 0.00 | 0.00 | 0.00 | 57 | 1009.5 |
| 20260502015706 | 13 | 194 | 0.0 | 8.0 | 0.00 | 0.00 | 0.00 | 57 | 1009.5 |
| 20260502015700 | 13 | 0 | 0.0 | 8.0 | 0.00 | 0.00 | 0.00 | 58 | 1009.5 |
| 20260502015522 | 13 | 192 | 0.0 | 8.0 | 0.00 | 0.00 | 0.00 | 57 | 1009.4 |
| 20260502015449 | 13 | 192 | 0.0 | 8.0 | 0.00 | 0.00 | 0.00 | 57 | 1009.4 |
| 20260502015349 | 13 | 213 | 0.0 | 8.0 | 0.00 | 0.00 | 0.00 | 58 | 1009.4 |
| 20260502015249 | 13 | 180 | 0.0 | 6.4 | 0.00 | 0.00 | 0.00 | 58 | 1009.4 |
| 20260502015156 | 13 | 176 | 0.0 | 6.4 | 0.00 | 0.00 | 0.00 | 57 | 1009.4 |
| 20260502015148 | 12 | 176 | 0.0 | 6.4 | 0.00 | 0.00 | 0.00 | 58 | 1009.4 |
| 20260502015048 | 12 | 173 | 0.0 | 6.4 | 0.00 | 0.00 | 0.00 | 58 | 1009.4 |
| 20260502015022 | 12 | 205 | 0.0 | 4.8 | 0.00 | 0.00 | 0.00 | 58 | 1009.3 |
| 20260502014947 | 12 | 187 | 0.0 | 6.4 | 0.00 | 0.00 | 0.00 | 58 | 1009.3 |
| 20260502014846 | 12 | 143 | 0.0 | 6.4 | 0.00 | 0.00 | 0.00 | 58 | 1009.1 |
| 20260502014746 | 12 | 165 | 0.0 | 6.4 | 0.00 | 0.00 | 0.00 | 58 | 1009.1 |
| 20260502014657 | 12 | 0 | 0.0 | 4.8 | 0.00 | 0.00 | 0.00 | 58 | 1009.1 |
| 20260502014646 | 12 | 160 | 0.0 | 4.8 | 0.00 | 0.00 | 0.00 | 58 | 1009.1 |
| 20260502014546 | 12 | 176 | 0.0 | 4.8 | 0.00 | 0.00 | 0.00 | 58 | 1009.1 |
| 20260502014522 | 12 | 171 | 0.0 | 4.8 | 0.00 | 0.00 | 0.00 | 58 | 1009.2 |
| 20260502014445 | 12 | 136 | 0.0 | 4.8 | 0.00 | 0.00 | 0.00 | 58 | 1009.2 |
| 20260502014345 | 12 | 209 | 0.0 | 4.8 | 0.00 | 0.00 | 0.00 | 58 | 1009.3 |
| 20260502014243 | 12 | 160 | 0.0 | 1.6 | 0.00 | 0.00 | 0.00 | 58 | 1009.3 |
| 20260502014157 | 12 | 168 | 0.0 | 1.6 | 0.00 | 0.00 | 0.00 | 59 | 1009.3 |
| 20260502014143 | 12 | 179 | 0.0 | 1.6 | 0.00 | 0.00 | 0.00 | 59 | 1009.3 |
| 20260502014042 | 12 | 200 | 0.0 | 1.6 | 0.00 | 0.00 | 0.00 | 59 | 1009.3 |
| 20260502014037 | 12 | 200 | 0.0 | 1.6 | 0.00 | 0.00 | 0.00 | 59 | 1009.4 |
| 20260502013953 | 12 | 174 | 0.0 | 1.6 | 0.00 | 0.00 | 0.00 | 59 | 1009.4 |
| 20260502013949 | 12 | 203 | 0.0 | 1.6 | 0.00 | 0.00 | 0.00 | 59 | 1009.4 |
| 20260502013740 | 12 | 173 | 0.0 | 1.6 | 0.00 | 0.00 | 0.00 | 59 | 1009.3 |
| 20260502013639 | 12 | 192 | 0.0 | 0.0 | 0.00 | 0.00 | 0.00 | 60 | 1009.3 |
| 20260502013540 | 12 | 194 | 0.0 | 0.0 | 0.00 | 0.00 | 0.00 | 60 | 1009.3 |
| 20260502013531 | 11 | 123 | 0.0 | 0.0 | 0.00 | 0.00 | 0.00 | 60 | 1009.2 |
| 20260502013522 | 12 | 360 | 0.0 | 0.0 | 0.00 | 0.00 | 0.00 | 60 | 1009.2 |
| 20260502013418 | 11 | 186 | 0.0 | 0.0 | 0.00 | 0.00 | 0.00 | 61 | 1009.1 |
| 20260502013412 | 11 | 171 | 0.0 | 0.0 | 0.00 | 0.00 | 0.00 | 60 | 1009.2 |
| 20260502013135 | 11 | 202 | 0.0 | 0.0 | 0.00 | 0.00 | 0.00 | 61 | 1009.1 |
| 20260502013035 | 11 | 189 | 0.0 | 0.0 | 0.00 | 0.00 | 0.00 | 61 | 1009.1 |
| 20260502013022 | 11 | 189 | 0.0 | 0.0 | 0.00 | 0.00 | 0.00 | 62 | 1009.1 |
| 20260502012934 | 11 | 202 | 0.0 | 0.0 | 0.00 | 0.00 | 0.00 | 62 | 1009.1 |
| 20260502012832 | 11 | 0 | 0.0 | 0.0 | 0.00 | 0.00 | 0.00 | 62 | 1009.0 |
| 20260502012730 | 11 | 162 | 0.0 | 0.0 | 0.00 | 0.00 | 0.00 | 62 | 1009.0 |
| 20260502012654 | 11 | 173 | 0.0 | 0.0 | 0.00 | 0.00 | 0.00 | 62 | 1009.0 |
| 20260502012629 | 11 | 177 | 0.0 | 0.0 | 0.00 | 0.00 | 0.00 | 62 | 1009.0 |
| 20260502012529 | 11 | 177 | 0.0 | 0.0 | 0.00 | 0.00 | 0.00 | 63 | 1009.0 |
| 20260502012522 | 11 | 177 | 0.0 | 0.0 | 0.00 | 0.00 | 0.00 | 63 | 1009.1 |
| 20260502012429 | 11 | 177 | 0.0 | 0.0 | 0.00 | 0.00 | 0.00 | 63 | 1009.1 |
| 20260502012328 | 11 | 177 | 0.0 | 0.0 | 0.00 | 0.00 | 0.00 | 63 | 1009.0 |
| 20260502012228 | 11 | 177 | 0.0 | 0.0 | 0.00 | 0.00 | 0.00 | 63 | 1009.0 |
| 20260502012128 | 11 | 177 | 0.0 | 0.0 | 0.00 | 0.00 | 0.00 | 63 | 1009.0 |
| 20260502012037 | 11 | 177 | 0.0 | 0.0 | 0.00 | 0.00 | 0.00 | 63 | 1009.1 |
| 20260502012026 | 11 | 177 | 0.0 | 0.0 | 0.00 | 0.00 | 0.00 | 63 | 1009.1 |
| 20260502011939 | 11 | 177 | 0.0 | 0.0 | 0.00 | 0.00 | 0.00 | 63 | 1009.1 |
| 20260502011935 | 11 | 177 | 0.0 | 0.0 | 0.00 | 0.00 | 0.00 | 63 | 1009.1 |
| 20260502011725 | 11 | 177 | 0.0 | 0.0 | 0.00 | 0.00 | 0.00 | 62 | 1009.1 |
| 20260502011654 | 11 | 177 | 0.0 | 0.0 | 0.00 | 0.00 | 0.00 | 62 | 1009.1 |
| 20260502011624 | 11 | 0 | 0.0 | 0.0 | 0.00 | 0.00 | 0.00 | 63 | 1009.1 |
| 20260502011537 | 11 | 196 | 0.0 | 0.0 | 0.00 | 0.00 | 0.00 | 64 | 1009.1 |
| 20260502011523 | 11 | 196 | 0.0 | 0.0 | 0.00 | 0.00 | 0.00 | 64 | 1009.1 |
| 20260502011423 | 11 | 200 | 0.0 | 0.0 | 0.00 | 0.00 | 0.00 | 64 | 1009.1 |
| 20260502011322 | 11 | 207 | 0.0 | 0.0 | 0.00 | 0.00 | 0.00 | 65 | 1009.0 |
| 20260502011242 | 11 | 207 | 0.0 | 0.0 | 0.00 | 0.00 | 0.00 | 63 | 1009.0 |
| 20260502011236 | 11 | 207 | 0.0 | 0.0 | 0.00 | 0.00 | 0.00 | 64 | 1009.0 |
| 20260502011228 | 11 | 207 | 0.0 | 0.0 | 0.00 | 0.00 | 0.00 | 64 | 1009.0 |
| 20260502011022 | 11 | 207 | 0.0 | 0.0 | 0.00 | 0.00 | 0.00 | 62 | 1009.0 |
| 20260502011020 | 11 | 207 | 0.0 | 0.0 | 0.00 | 0.00 | 0.00 | 62 | 1009.0 |
| 20260502010920 | 11 | 0 | 0.0 | 0.0 | 0.00 | 0.00 | 0.00 | 63 | 1009.0 |
| 20260502010819 | 11 | 211 | 0.0 | 0.0 | 0.00 | 0.00 | 0.00 | 62 | 1009.0 |
| 20260502010718 | 11 | 211 | 0.0 | 0.0 | 0.00 | 0.00 | 0.00 | 61 | 1009.0 |
| 20260502010653 | 11 | 211 | 0.0 | 0.0 | 0.00 | 0.00 | 0.00 | 61 | 1009.0 |
| 20260502010631 | 11 | 211 | 0.0 | 0.0 | 0.00 | 0.00 | 0.00 | 62 | 1008.9 |
| 20260502010626 | 11 | 211 | 0.0 | 0.0 | 0.00 | 0.00 | 0.00 | 62 | 1009.0 |
| 20260502010522 | 11 | 211 | 0.0 | 0.0 | 0.00 | 0.00 | 0.00 | 62 | 1008.9 |
| 20260502010417 | 11 | 211 | 0.0 | 0.0 | 0.00 | 0.00 | 0.00 | 62 | 1008.9 |
| 20260502010329 | 11 | 211 | 0.0 | 0.0 | 0.00 | 0.00 | 0.00 | 62 | 1008.8 |
| 20260502010325 | 11 | 211 | 0.0 | 0.0 | 0.00 | 0.00 | 0.00 | 61 | 1008.8 |
| 20260502010153 | 11 | 211 | 0.0 | 0.0 | 0.00 | 0.00 | 0.00 | 62 | 1008.8 |
| 20260502010114 | 11 | 211 | 0.0 | 0.0 | 0.00 | 0.00 | 0.00 | 61 | 1008.8 |
| 20260502010022 | 12 | 211 | 0.0 | 0.0 | 0.00 | 0.00 | 0.00 | 62 | 1008.8 |
| 20260502010013 | 11 | 211 | 0.0 | 0.0 | 0.00 | 0.00 | 0.00 | 62 | 1008.8 |
| 20260502005926 | 12 | 211 | 0.0 | 0.0 | 0.00 | 0.00 | 0.00 | 63 | 1008.8 |
| 20260502005922 | 12 | 211 | 0.0 | 0.0 | 0.00 | 0.00 | 0.00 | 63 | 1008.8 |
| 20260502005713 | 12 | 211 | 0.0 | 0.0 | 0.00 | 0.00 | 0.00 | 62 | 1008.8 |
| 20260502005653 | 12 | 211 | 0.0 | 0.0 | 0.00 | 0.00 | 0.00 | 62 | 1008.8 |
| 20260502005611 | 12 | 211 | 0.0 | 0.0 | 0.00 | 0.00 | 0.00 | 62 | 1008.9 |
| 20260502005522 | 12 | 211 | 0.0 | 0.0 | 0.00 | 0.00 | 0.00 | 62 | 1008.9 |
| 20260502005511 | 12 | 211 | 0.0 | 0.0 | 0.00 | 0.00 | 0.00 | 62 | 1008.9 |
| 20260502005410 | 12 | 211 | 0.0 | 0.0 | 0.00 | 0.00 | 0.00 | 62 | 1008.9 |
| 20260502005309 | 12 | 211 | 0.0 | 0.0 | 0.00 | 0.00 | 0.00 | 61 | 1008.9 |
| 20260502005209 | 12 | 211 | 0.0 | 0.0 | 0.00 | 0.00 | 0.00 | 61 | 1008.9 |
| 20260502005151 | 12 | 211 | 0.0 | 0.0 | 0.00 | 0.00 | 0.00 | 60 | 1008.9 |
| 20260502005108 | 12 | 211 | 0.0 | 0.0 | 0.00 | 0.00 | 0.00 | 60 | 1008.9 |
| 20260502005022 | 12 | 211 | 0.0 | 0.0 | 0.00 | 0.00 | 0.00 | 60 | 1008.8 |
| 20260502005008 | 12 | 211 | 0.0 | 0.0 | 0.00 | 0.00 | 0.00 | 60 | 1008.8 |
| 20260502004906 | 12 | 211 | 0.0 | 0.0 | 0.00 | 0.00 | 0.00 | 60 | 1008.8 |
| 20260502004806 | 12 | 211 | 0.0 | 0.0 | 0.00 | 0.00 | 0.00 | 60 | 1008.8 |
| 20260502004720 | 12 | 211 | 0.0 | 0.0 | 0.00 | 0.00 | 0.00 | 59 | 1008.8 |
| 20260502004712 | 12 | 211 | 0.0 | 0.0 | 0.00 | 0.00 | 0.00 | 59 | 1008.8 |
| 20260502004552 | 12 | 211 | 0.0 | 0.0 | 0.00 | 0.00 | 0.00 | 59 | 1008.9 |
| 20260502004533 | 12 | 211 | 0.0 | 0.0 | 0.00 | 0.00 | 0.00 | 57 | 1008.9 |
| 20260502004528 | 12 | 211 | 0.0 | 0.0 | 0.00 | 0.00 | 0.00 | 57 | 1008.8 |
| 20260502004523 | 12 | 211 | 0.0 | 0.0 | 0.00 | 0.00 | 0.00 | 57 | 1008.9 |
| 20260502004203 | 12 | 211 | 0.0 | 0.0 | 0.00 | 0.00 | 0.00 | 56 | 1008.8 |
| 20260502004151 | 12 | 211 | 0.0 | 0.0 | 0.00 | 0.00 | 0.00 | 56 | 1008.8 |
| 20260502004102 | 13 | 211 | 0.0 | 0.0 | 0.00 | 0.00 | 0.00 | 55 | 1008.7 |
| 20260502004023 | 13 | 211 | 0.0 | 0.0 | 0.00 | 0.00 | 0.00 | 54 | 1008.7 |
| 20260502004000 | 13 | 211 | 0.0 | 0.0 | 0.00 | 0.00 | 0.00 | 54 | 1008.7 |
| 20260502003900 | 13 | 211 | 0.0 | 0.0 | 0.00 | 0.00 | 0.00 | 53 | 1008.6 |
| 20260502003759 | 13 | 211 | 0.0 | 0.0 | 0.00 | 0.00 | 0.00 | 53 | 1008.7 |
| 20260502003649 | 13 | 211 | 0.0 | 0.0 | 0.00 | 0.00 | 0.00 | 53 | 1008.6 |
| 20260502003600 | 13 | 211 | 0.0 | 0.0 | 0.00 | 0.00 | 0.00 | 53 | 1008.6 |
| 20260502003537 | 13 | 211 | 0.0 | 0.0 | 0.00 | 0.00 | 0.00 | 53 | 1008.6 |
| 20260502003500 | 13 | 211 | 0.0 | 0.0 | 0.00 | 0.00 | 0.00 | 53 | 1008.6 |
| 20260502003358 | 13 | 211 | 0.0 | 0.0 | 0.00 | 0.00 | 0.00 | 53 | 1008.6 |
| 20260502003258 | 13 | 211 | 0.0 | 0.0 | 0.00 | 0.00 | 0.00 | 52 | 1008.6 |
| 20260502003148 | 13 | 211 | 0.0 | 0.0 | 0.00 | 0.00 | 0.00 | 52 | 1008.6 |
| 20260502003118 | 13 | 211 | 0.0 | 0.0 | 0.00 | 0.00 | 0.00 | 52 | 1008.6 |
| 20260502003022 | 13 | 211 | 0.0 | 0.0 | 0.00 | 0.00 | 0.00 | 52 | 1008.6 |
| 20260502003005 | 13 | 211 | 0.0 | 0.0 | 0.00 | 0.00 | 0.00 | 52 | 1008.6 |
| 20260502002755 | 13 | 211 | 0.0 | 0.0 | 0.00 | 0.00 | 0.00 | 51 | 1008.5 |
| 20260502002647 | 13 | 211 | 0.0 | 0.0 | 0.00 | 0.00 | 0.00 | 52 | 1008.5 |
| 20260502002555 | 13 | 211 | 0.0 | 0.0 | 0.00 | 0.00 | 0.00 | 52 | 1008.5 |
| 20260502002522 | 13 | 211 | 0.0 | 0.0 | 0.00 | 0.00 | 0.00 | 52 | 1008.5 |
| 20260502002454 | 13 | 211 | 0.0 | 0.0 | 0.00 | 0.00 | 0.00 | 52 | 1008.5 |
| 20260502002354 | 13 | 211 | 0.0 | 0.0 | 0.00 | 0.00 | 0.00 | 52 | 1008.5 |
| 20260502002326 | 13 | 211 | 0.0 | 0.0 | 0.00 | 0.00 | 0.00 | 51 | 1008.5 |
| 20260502002322 | 14 | 211 | 0.0 | 0.0 | 0.00 | 0.00 | 0.00 | 51 | 1008.5 |
| 20260502002316 | 13 | 211 | 0.0 | 0.0 | 0.00 | 0.00 | 0.00 | 51 | 1008.5 |
| 20260502002200 | 13 | 211 | 0.0 | 0.0 | 0.00 | 0.00 | 0.00 | 51 | 1008.5 |
| 20260502002022 | 14 | 211 | 0.0 | 0.0 | 0.00 | 0.00 | 0.00 | 51 | 1008.6 |
| 20260502001952 | 14 | 211 | 0.0 | 0.0 | 0.00 | 0.00 | 0.00 | 51 | 1008.6 |
| 20260502001852 | 14 | 211 | 0.0 | 0.0 | 0.00 | 0.00 | 0.00 | 51 | 1008.5 |
| 20260502001751 | 14 | 211 | 0.0 | 0.0 | 0.00 | 0.00 | 0.00 | 50 | 1008.6 |
| 20260502001712 | 14 | 211 | 0.0 | 0.0 | 0.00 | 0.00 | 0.00 | 50 | 1008.7 |
| 20260502001659 | 14 | 211 | 0.0 | 0.0 | 0.00 | 0.00 | 0.00 | 50 | 1008.6 |
| 20260502001522 | 14 | 211 | 0.0 | 0.0 | 0.00 | 0.00 | 0.00 | 50 | 1008.6 |
| 20260502001451 | 14 | 211 | 0.0 | 0.0 | 0.00 | 0.00 | 0.00 | 50 | 1008.7 |
| 20260502001404 | 14 | 211 | 0.0 | 0.0 | 0.00 | 0.00 | 0.00 | 50 | 1008.6 |
| 20260502001358 | 14 | 211 | 0.0 | 0.0 | 0.00 | 0.00 | 0.00 | 50 | 1008.7 |
| 20260502001208 | 14 | 211 | 0.0 | 0.0 | 0.00 | 0.00 | 0.00 | 51 | 1008.6 |
| 20260502001156 | 14 | 211 | 0.0 | 0.0 | 0.00 | 0.00 | 0.00 | 50 | 1008.6 |
| 20260502000948 | 14 | 211 | 0.0 | 0.0 | 0.00 | 0.00 | 0.00 | 50 | 1008.6 |
| 20260502000904 | 15 | 211 | 0.0 | 0.0 | 0.00 | 0.00 | 0.00 | 50 | 1008.7 |
| 20260502000848 | 14 | 211 | 0.0 | 0.0 | 0.00 | 0.00 | 0.00 | 50 | 1008.7 |
| 20260502000758 | 14 | 211 | 0.0 | 0.0 | 0.00 | 0.00 | 0.00 | 50 | 1008.7 |
| 20260502000749 | 15 | 211 | 0.0 | 0.0 | 0.00 | 0.00 | 0.00 | 50 | 1008.7 |
| 20260502000547 | 15 | 211 | 0.0 | 0.0 | 0.00 | 0.00 | 0.00 | 49 | 1008.7 |
| 20260502000522 | 15 | 211 | 0.0 | 0.0 | 0.00 | 0.00 | 0.00 | 49 | 1008.6 |
| 20260502000447 | 15 | 211 | 0.0 | 0.0 | 0.00 | 0.00 | 0.00 | 48 | 1008.7 |
| 20260502000347 | 15 | 211 | 0.0 | 0.0 | 0.00 | 0.00 | 0.00 | 48 | 1008.7 |
| 20260502000247 | 15 | 211 | 0.0 | 0.0 | 0.00 | 0.00 | 0.00 | 48 | 1008.7 |
| 20260502000141 | 15 | 211 | 0.0 | 0.0 | 0.00 | 0.00 | 0.00 | 48 | 1008.7 |
| 20260502000044 | 15 | 211 | 0.0 | 0.0 | 0.00 | 0.00 | 0.00 | 48 | 1008.7 |
| 20260502000022 | 15 | 211 | 0.0 | 0.0 | 0.00 | 0.00 | 0.00 | 48 | 1008.5 |
| 20260501235944 | 15 | 211 | 0.0 | 0.0 | 0.00 | 0.00 | 0.00 | 47 | 1008.6 |
| 20260501235915 | 15 | 211 | 0.0 | 0.0 | 0.00 | 0.00 | 0.00 | 47 | 1008.6 |
| 20260501235911 | 15 | 211 | 0.0 | 0.0 | 0.00 | 0.00 | 0.00 | 47 | 1008.6 |
| 20260501235905 | 15 | 211 | 0.0 | 0.0 | 0.00 | 0.00 | 0.00 | 47 | 1008.7 |
| 20260501235643 | 15 | 211 | 0.0 | 0.0 | 0.00 | 0.00 | 0.00 | 47 | 1008.6 |
| 20260501235540 | 15 | 211 | 0.0 | 0.0 | 0.00 | 0.00 | 0.00 | 47 | 1008.6 |
| 20260501235523 | 15 | 360 | 0.0 | 0.0 | 0.00 | 0.00 | 0.00 | 47 | 1008.4 |
| 20260501235453 | 15 | 211 | 0.0 | 0.0 | 0.00 | 0.00 | 0.00 | 46 | 1008.6 |
| 20260501235447 | 15 | 211 | 0.0 | 0.0 | 0.00 | 0.00 | 0.00 | 47 | 1008.6 |
| 20260501235238 | 15 | 211 | 0.0 | 0.0 | 0.00 | 0.00 | 0.00 | 47 | 1008.6 |
| 20260501235137 | 15 | 0 | 0.0 | 0.0 | 0.00 | 0.00 | 0.00 | 47 | 1008.5 |
| 20260501235038 | 15 | 0 | 0.0 | 0.0 | 0.00 | 0.00 | 0.00 | 46 | 1008.5 |
| 20260501235022 | 15 | 360 | 0.0 | 0.0 | 0.00 | 0.00 | 0.00 | 46 | 1008.4 |
| 20260501234937 | 15 | 0 | 0.0 | 0.0 | 0.00 | 0.00 | 0.00 | 46 | 1008.5 |
| 20260501234836 | 15 | 0 | 0.0 | 0.0 | 0.00 | 0.00 | 0.00 | 46 | 1008.4 |
| 20260501234735 | 15 | 0 | 0.0 | 0.0 | 0.00 | 0.00 | 0.00 | 46 | 1008.4 |
| 20260501234634 | 15 | 0 | 0.0 | 0.0 | 0.00 | 0.00 | 0.00 | 46 | 1008.4 |
| 20260501234534 | 15 | 0 | 0.0 | 0.0 | 0.00 | 0.00 | 0.00 | 45 | 1008.4 |
| 20260501234522 | 15 | 360 | 0.0 | 0.0 | 0.00 | 0.00 | 0.00 | 46 | 1008.3 |
| 20260501234449 | 15 | 0 | 0.0 | 0.0 | 0.00 | 0.00 | 0.00 | 45 | 1008.4 |
| 20260501234443 | 15 | 0 | 0.0 | 0.0 | 0.00 | 0.00 | 0.00 | 46 | 1008.4 |
| 20260501234235 | 15 | 0 | 0.0 | 0.0 | 0.00 | 0.00 | 0.00 | 45 | 1008.4 |
| 20260501234133 | 15 | 0 | 0.0 | 0.0 | 0.00 | 0.00 | 0.00 | 45 | 1008.4 |
| 20260501234053 | 15 | 360 | 0.0 | 0.0 | 0.00 | 0.00 | 0.00 | 45 | 1008.3 |
| 20260501234033 | 15 | 0 | 0.0 | 0.0 | 0.00 | 0.00 | 0.00 | 45 | 1008.5 |
| 20260501233947 | 15 | 0 | 0.0 | 0.0 | 0.00 | 0.00 | 0.00 | 45 | 1008.4 |
| 20260501233941 | 15 | 0 | 0.0 | 0.0 | 0.00 | 0.00 | 0.00 | 45 | 1008.4 |
| 20260501233732 | 16 | 0 | 0.0 | 0.0 | 0.00 | 0.00 | 0.00 | 45 | 1008.4 |
| 20260501233631 | 16 | 0 | 0.0 | 0.0 | 0.00 | 0.00 | 0.00 | 45 | 1008.4 |
| 20260501233530 | 16 | 0 | 0.0 | 0.0 | 0.00 | 0.00 | 0.00 | 44 | 1008.3 |
| 20260501233522 | 16 | 360 | 0.0 | 0.0 | 0.00 | 0.00 | 0.00 | 44 | 1008.2 |
| 20260501233430 | 16 | 0 | 0.0 | 3.2 | 0.00 | 0.00 | 0.00 | 44 | 1008.3 |
| 20260501233329 | 16 | 0 | 0.0 | 3.2 | 0.00 | 0.00 | 0.00 | 44 | 1008.3 |
| 20260501233229 | 16 | 0 | 0.0 | 3.2 | 0.00 | 0.00 | 0.00 | 44 | 1008.2 |
| 20260501233129 | 16 | 0 | 0.0 | 3.2 | 0.00 | 0.00 | 0.00 | 44 | 1008.2 |
| 20260501233028 | 16 | 0 | 0.0 | 3.2 | 0.00 | 0.00 | 0.00 | 44 | 1008.2 |
| 20260501233022 | 16 | 360 | 0.0 | 3.2 | 0.00 | 0.00 | 0.00 | 44 | 1008.1 |
| 20260501232941 | 16 | 0 | 0.0 | 3.2 | 0.00 | 0.00 | 0.00 | 43 | 1008.1 |
| 20260501232936 | 16 | 0 | 0.0 | 3.2 | 0.00 | 0.00 | 0.00 | 43 | 1008.2 |
| 20260501232724 | 16 | 0 | 0.0 | 3.2 | 0.00 | 0.00 | 0.00 | 43 | 1008.1 |
| 20260501232623 | 16 | 0 | 0.0 | 3.2 | 0.00 | 0.00 | 0.00 | 43 | 1008.2 |
| 20260501232537 | 16 | 360 | 0.0 | 3.2 | 0.00 | 0.00 | 0.00 | 43 | 1008.0 |
| 20260501232524 | 16 | 0 | 0.0 | 3.2 | 0.00 | 0.00 | 0.00 | 43 | 1008.2 |
| 20260501232423 | 16 | 0 | 0.0 | 1.6 | 0.00 | 0.00 | 0.00 | 43 | 1008.1 |
| 20260501232323 | 16 | 0 | 0.0 | 1.6 | 0.00 | 0.00 | 0.00 | 43 | 1008.1 |
| 20260501232222 | 16 | 0 | 0.0 | 1.6 | 0.00 | 0.00 | 0.00 | 43 | 1008.0 |
| 20260501232144 | 16 | 0 | 0.0 | 1.6 | 0.00 | 0.00 | 0.00 | 43 | 1008.0 |
| 20260501232037 | 16 | 360 | 0.0 | 1.6 | 0.00 | 0.00 | 0.00 | 43 | 1007.8 |
| 20260501232031 | 16 | 0 | 0.0 | 1.6 | 0.00 | 0.00 | 0.00 | 43 | 1008.0 |
| 20260501231821 | 16 | 0 | 0.0 | 1.6 | 0.00 | 0.00 | 0.00 | 43 | 1007.9 |
| 20260501231721 | 16 | 0 | 0.0 | 1.6 | 0.00 | 0.00 | 0.00 | 43 | 1007.9 |
| 20260501231633 | 16 | 0 | 0.0 | 1.6 | 0.00 | 0.00 | 0.00 | 44 | 1007.9 |
| 20260501231620 | 16 | 0 | 0.0 | 1.6 | 0.00 | 0.00 | 0.00 | 43 | 1007.9 |
| 20260501231522 | 16 | 360 | 0.0 | 1.6 | 0.00 | 0.00 | 0.00 | 43 | 1007.8 |
| 20260501231519 | 16 | 0 | 0.0 | 1.6 | 0.00 | 0.00 | 0.00 | 43 | 1007.9 |
| 20260501231432 | 16 | 0 | 0.0 | 0.0 | 0.00 | 0.00 | 0.00 | 43 | 1007.9 |
| 20260501231426 | 16 | 0 | 0.0 | 0.0 | 0.00 | 0.00 | 0.00 | 43 | 1007.9 |
| 20260501231217 | 16 | 0 | 0.0 | 1.6 | 0.00 | 0.00 | 0.00 | 43 | 1007.9 |
| 20260501231138 | 16 | 0 | 0.0 | 4.8 | 0.00 | 0.00 | 0.00 | 43 | 1007.9 |
| 20260501231024 | 16 | 0 | 0.0 | 4.8 | 0.00 | 0.00 | 0.00 | 43 | 1007.9 |
| 20260501231022 | 16 | 360 | 0.0 | 4.8 | 0.00 | 0.00 | 0.00 | 43 | 1007.7 |
| 20260501230816 | 16 | 0 | 0.0 | 6.4 | 0.00 | 0.00 | 0.00 | 43 | 1007.8 |
| 20260501230714 | 16 | 0 | 0.0 | 6.4 | 0.00 | 0.00 | 0.00 | 42 | 1007.8 |
| 20260501230628 | 16 | 0 | 0.0 | 6.4 | 0.00 | 0.00 | 0.00 | 42 | 1007.8 |
| 20260501230613 | 16 | 0 | 0.0 | 6.4 | 0.00 | 0.00 | 0.00 | 42 | 1007.9 |
| 20260501230552 | 16 | 360 | 0.0 | 6.4 | 0.00 | 0.00 | 0.00 | 41 | 1007.8 |
| 20260501230512 | 16 | 0 | 0.0 | 6.4 | 0.00 | 0.00 | 0.00 | 41 | 1007.9 |